Time,TemperatureF,DewpointF,PressureIn,WindDirection,WindDirectionDegrees,WindSpeedMPH,WindSpeedGustMPH,Humidity,HourlyPrecipIn,Conditions,Clouds,dailyrainin,SoftwareType,DateUTC
2013-06-17 00:01:00,58.3,51.8,30.09,SE,135,0.0,0.0,79,0.00,,,0.00,WUHU21623XXSP,2013-06-17 07:01:00,
2013-06-17 00:02:00,58.3,51.8,30.09,SE,135,0.0,0.0,79,0.00,,,0.00,WUHU21623XXSP,2013-06-17 07:02:00,
2013-06-17 00:03:00,58.3,51.8,30.09,ESE,112,0.0,0.0,79,0.00,,,0.00,WUHU21623XXSP,2013-06-17 07:03:00,
2013-06-17 00:06:00,58.1,51.6,30.09,ESE,112,0.0,0.0,79,0.00,,,0.00,WUHU21623XXSP,2013-06-17 07:06:00,
2013-06-17 00:07:00,58.1,51.6,30.09,ESE,112,0.0,0.0,79,0.00,,,0.00,WUHU21623XXSP,2013-06-17 07:07:00,
2013-06-17 00:08:00,58.1,51.6,30.09,ESE,112,0.0,0.0,79,0.00,,,0.00,WUHU21623XXSP,2013-06-17 07:08:00,
2013-06-17 00:11:00,58.1,51.6,30.09,ESE,112,0.0,0.0,79,0.00,,,0.00,WUHU21623XXSP,2013-06-17 07:11:00,
2013-06-17 00:12:00,58.1,51.6,30.09,ESE,112,0.0,0.0,79,0.00,,,0.00,WUHU21623XXSP,2013-06-17 07:12:00,
2013-06-17 00:13:00,58.1,51.6,30.09,ESE,112,0.0,0.0,79,0.00,,,0.00,WUHU21623XXSP,2013-06-17 07:13:00,
2013-06-17 00:14:00,57.9,51.4,30.09,ESE,112,0.0,0.0,79,0.00,,,0.00,WUHU21623XXSP,2013-06-17 07:14:00,
2013-06-17 00:16:00,57.9,51.4,30.09,ESE,112,0.0,0.0,79,0.00,,,0.00,WUHU21623XXSP,2013-06-17 07:16:00,
2013-06-17 00:17:00,57.9,51.4,30.09,ESE,112,0.0,0.0,79,0.00,,,0.00,WUHU21623XXSP,2013-06-17 07:17:00,
2013-06-17 00:18:00,57.9,51.4,30.09,ESE,112,0.0,0.0,79,0.00,,,0.00,WUHU21623XXSP,2013-06-17 07:18:00,
2013-06-17 00:19:00,57.9,51.4,30.09,ESE,112,0.0,0.0,79,0.00,,,0.00,WUHU21623XXSP,2013-06-17 07:19:00,
2013-06-17 00:21:00,57.9,51.4,30.09,ESE,112,0.0,0.0,79,0.00,,,0.00,WUHU21623XXSP,2013-06-17 07:21:00,
2013-06-17 00:22:00,57.9,51.3,30.09,ESE,112,0.0,0.0,79,0.00,,,0.00,WUHU21623XXSP,2013-06-17 07:22:00,
2013-06-17 00:23:00,57.9,51.4,30.09,ESE,112,0.0,0.0,79,0.00,,,0.00,WUHU21623XXSP,2013-06-17 07:23:00,
2013-06-17 00:24:00,57.7,51.3,30.09,ESE,112,0.0,0.0,79,0.00,,,0.00,WUHU21623XXSP,2013-06-17 07:24:00,
2013-06-17 00:27:00,57.7,51.3,30.09,ESE,112,0.0,0.0,79,0.00,,,0.00,WUHU21623XXSP,2013-06-17 07:27:00,
2013-06-17 00:28:00,57.6,51.1,30.09,ESE,112,0.0,0.0,79,0.00,,,0.00,WUHU21623XXSP,2013-06-17 07:28:00,
2013-06-17 00:29:00,57.7,51.3,30.08,ESE,112,0.0,0.0,79,0.00,,,0.00,WUHU21623XXSP,2013-06-17 07:29:00,
2013-06-17 00:32:00,57.6,51.1,30.08,ESE,112,0.0,0.0,79,0.00,,,0.00,WUHU21623XXSP,2013-06-17 07:32:00,
2013-06-17 00:33:00,57.4,50.9,30.09,ESE,112,0.0,0.0,79,0.00,,,0.00,WUHU21623XXSP,2013-06-17 07:33:00,
2013-06-17 00:34:00,57.4,50.9,30.09,ESE,112,0.0,0.0,79,0.00,,,0.00,WUHU21623XXSP,2013-06-17 07:34:00,
2013-06-17 00:37:00,57.4,50.9,30.09,ESE,112,0.0,0.0,79,0.00,,,0.00,WUHU21623XXSP,2013-06-17 07:37:00,
2013-06-17 00:38:00,57.4,50.9,30.09,ESE,112,0.0,0.0,79,0.00,,,0.00,WUHU21623XXSP,2013-06-17 07:38:00,
2013-06-17 00:39:00,57.4,50.9,30.08,ESE,112,0.0,0.0,79,0.00,,,0.00,WUHU21623XXSP,2013-06-17 07:39:00,
2013-06-17 00:42:00,57.4,51.3,30.08,ESE,112,0.0,0.0,80,0.00,,,0.00,WUHU21623XXSP,2013-06-17 07:42:00,
2013-06-17 00:43:00,57.2,51.1,30.08,ESE,112,0.0,0.0,80,0.00,,,0.00,WUHU21623XXSP,2013-06-17 07:43:00,
2013-06-17 00:44:00,57.4,51.3,30.08,ESE,112,0.0,0.0,80,0.00,,,0.00,WUHU21623XXSP,2013-06-17 07:44:00,
2013-06-17 00:47:00,57.0,50.9,30.08,ESE,112,0.0,0.0,80,0.00,,,0.00,WUHU21623XXSP,2013-06-17 07:47:00,
2013-06-17 00:48:00,57.0,50.9,30.08,ESE,112,0.0,0.0,80,0.00,,,0.00,WUHU21623XXSP,2013-06-17 07:48:00,
2013-06-17 00:49:00,57.0,50.9,30.08,ESE,112,0.0,0.0,80,0.00,,,0.00,WUHU21623XXSP,2013-06-17 07:49:00,
2013-06-17 00:52:00,57.0,50.9,30.08,ESE,112,0.0,0.0,80,0.00,,,0.00,WUHU21623XXSP,2013-06-17 07:52:00,
2013-06-17 00:53:00,57.0,50.9,30.08,ESE,112,0.0,0.0,80,0.00,,,0.00,WUHU21623XXSP,2013-06-17 07:53:00,
2013-06-17 00:54:00,57.0,50.9,30.09,ESE,112,0.0,0.0,80,0.00,,,0.00,WUHU21623XXSP,2013-06-17 07:54:00,
2013-06-17 00:55:00,57.0,50.9,30.09,ESE,112,0.0,0.0,80,0.00,,,0.00,WUHU21623XXSP,2013-06-17 07:55:00,
2013-06-17 00:57:00,57.0,50.9,30.08,ESE,112,0.0,0.0,80,0.00,,,0.00,WUHU21623XXSP,2013-06-17 07:57:00,
2013-06-17 00:58:00,57.0,50.9,30.08,ESE,112,0.0,0.0,80,0.00,,,0.00,WUHU21623XXSP,2013-06-17 07:58:00,
2013-06-17 00:59:00,57.0,50.9,30.08,ESE,112,0.0,0.0,80,0.00,,,0.00,WUHU21623XXSP,2013-06-17 07:59:00,
2013-06-17 01:00:00,57.0,50.9,30.08,ESE,112,0.0,0.0,80,0.00,,,0.00,WUHU21623XXSP,2013-06-17 08:00:00,
2013-06-17 01:02:00,57.0,50.9,30.08,ESE,112,0.0,0.0,80,0.00,,,0.00,WUHU21623XXSP,2013-06-17 08:02:00,
2013-06-17 01:03:00,57.0,50.9,30.08,ESE,112,0.0,0.0,80,0.00,,,0.00,WUHU21623XXSP,2013-06-17 08:03:00,
2013-06-17 01:04:00,57.0,50.9,30.08,ESE,112,0.0,0.0,80,0.00,,,0.00,WUHU21623XXSP,2013-06-17 08:04:00,
2013-06-17 01:05:00,57.0,50.9,30.08,ESE,112,0.0,0.0,80,0.00,,,0.00,WUHU21623XXSP,2013-06-17 08:05:00,
2013-06-17 01:08:00,57.0,50.9,30.08,ESE,112,0.0,0.0,80,0.00,,,0.00,WUHU21623XXSP,2013-06-17 08:08:00,
2013-06-17 01:09:00,57.0,51.2,30.08,ESE,112,0.0,0.0,81,0.00,,,0.00,WUHU21623XXSP,2013-06-17 08:09:00,
2013-06-17 01:10:00,57.0,50.9,30.08,ESE,112,0.0,0.0,80,0.00,,,0.00,WUHU21623XXSP,2013-06-17 08:10:00,
2013-06-17 01:12:00,57.0,51.2,30.08,ESE,112,0.0,0.0,81,0.00,,,0.00,WUHU21623XXSP,2013-06-17 08:12:00,
2013-06-17 01:13:00,57.0,51.2,30.08,ESE,112,0.0,0.0,81,0.00,,,0.00,WUHU21623XXSP,2013-06-17 08:13:00,
2013-06-17 01:14:00,57.0,51.2,30.08,ESE,112,0.0,0.0,81,0.00,,,0.00,WUHU21623XXSP,2013-06-17 08:14:00,
2013-06-17 01:15:00,57.0,51.2,30.08,ESE,112,0.0,0.0,81,0.00,,,0.00,WUHU21623XXSP,2013-06-17 08:15:00,
2013-06-17 01:17:00,57.0,51.2,30.08,ESE,112,0.0,0.0,81,0.00,,,0.00,WUHU21623XXSP,2013-06-17 08:17:00,
2013-06-17 01:18:00,57.0,51.2,30.08,ESE,112,0.0,0.0,81,0.00,,,0.00,WUHU21623XXSP,2013-06-17 08:18:00,
2013-06-17 01:19:00,57.0,51.2,30.08,ESE,112,0.0,0.0,81,0.00,,,0.00,WUHU21623XXSP,2013-06-17 08:19:00,
2013-06-17 01:20:00,57.0,51.2,30.08,ESE,112,0.0,0.0,81,0.00,,,0.00,WUHU21623XXSP,2013-06-17 08:20:00,
2013-06-17 01:22:00,57.0,51.2,30.08,ESE,112,0.0,0.0,81,0.00,,,0.00,WUHU21623XXSP,2013-06-17 08:22:00,
2013-06-17 01:23:00,57.0,51.2,30.08,ESE,112,0.0,0.0,81,0.00,,,0.00,WUHU21623XXSP,2013-06-17 08:23:00,
2013-06-17 01:24:00,57.0,51.2,30.08,ESE,112,0.0,0.0,81,0.00,,,0.00,WUHU21623XXSP,2013-06-17 08:24:00,
2013-06-17 01:25:00,57.0,51.2,30.08,ESE,112,0.0,0.0,81,0.00,,,0.00,WUHU21623XXSP,2013-06-17 08:25:00,
2013-06-17 01:27:00,57.0,51.2,30.08,ESE,112,0.0,0.0,81,0.00,,,0.00,WUHU21623XXSP,2013-06-17 08:27:00,
2013-06-17 01:29:00,57.0,51.2,30.08,ESE,112,0.0,0.0,81,0.00,,,0.00,WUHU21623XXSP,2013-06-17 08:29:00,
2013-06-17 01:30:00,57.0,51.2,30.08,ESE,112,0.0,0.0,81,0.00,,,0.00,WUHU21623XXSP,2013-06-17 08:30:00,
2013-06-17 01:32:00,57.0,51.2,30.08,ESE,112,0.0,0.0,81,0.00,,,0.00,WUHU21623XXSP,2013-06-17 08:32:00,
2013-06-17 01:34:00,57.0,51.2,30.08,ESE,112,0.0,0.0,81,0.00,,,0.00,WUHU21623XXSP,2013-06-17 08:34:00,
2013-06-17 01:35:00,57.0,51.2,30.08,ESE,112,0.0,0.0,81,0.00,,,0.00,WUHU21623XXSP,2013-06-17 08:35:00,
2013-06-17 01:36:00,57.0,51.2,30.08,ESE,112,0.0,0.0,81,0.00,,,0.00,WUHU21623XXSP,2013-06-17 08:36:00,
2013-06-17 01:37:00,57.0,51.2,30.08,ESE,112,0.0,0.0,81,0.00,,,0.00,WUHU21623XXSP,2013-06-17 08:37:00,
2013-06-17 01:39:00,57.0,51.2,30.08,ESE,112,0.0,0.0,81,0.00,,,0.00,WUHU21623XXSP,2013-06-17 08:39:00,
2013-06-17 01:40:00,57.0,51.2,30.08,ESE,112,0.0,0.0,81,0.00,,,0.00,WUHU21623XXSP,2013-06-17 08:40:00,
2013-06-17 01:41:00,57.0,51.2,30.08,ESE,112,0.0,0.0,81,0.00,,,0.00,WUHU21623XXSP,2013-06-17 08:41:00,
2013-06-17 01:42:00,57.0,51.2,30.08,ESE,112,0.0,0.0,81,0.00,,,0.00,WUHU21623XXSP,2013-06-17 08:42:00,
2013-06-17 01:44:00,57.0,51.2,30.08,ESE,112,0.0,0.0,81,0.00,,,0.00,WUHU21623XXSP,2013-06-17 08:44:00,
2013-06-17 01:45:00,57.0,51.2,30.08,ESE,112,0.0,0.0,81,0.00,,,0.00,WUHU21623XXSP,2013-06-17 08:45:00,
2013-06-17 01:46:00,57.0,51.2,30.08,ESE,112,0.0,0.0,81,0.00,,,0.00,WUHU21623XXSP,2013-06-17 08:46:00,
2013-06-17 01:48:00,57.0,51.2,30.08,ESE,112,0.0,0.0,81,0.00,,,0.00,WUHU21623XXSP,2013-06-17 08:48:00,
2013-06-17 01:50:00,57.0,51.2,30.08,ESE,112,0.0,0.0,81,0.00,,,0.00,WUHU21623XXSP,2013-06-17 08:50:00,
2013-06-17 01:51:00,57.0,51.2,30.08,ESE,112,0.0,0.0,81,0.00,,,0.00,WUHU21623XXSP,2013-06-17 08:51:00,
2013-06-17 01:53:00,57.0,51.2,30.08,ESE,112,0.0,0.0,81,0.00,,,0.00,WUHU21623XXSP,2013-06-17 08:53:00,
2013-06-17 01:55:00,57.0,51.2,30.08,ESE,112,0.0,0.0,81,0.00,,,0.00,WUHU21623XXSP,2013-06-17 08:55:00,
2013-06-17 01:56:00,57.0,51.2,30.08,ESE,112,0.0,0.0,81,0.00,,,0.00,WUHU21623XXSP,2013-06-17 08:56:00,
2013-06-17 01:58:00,57.0,51.2,30.08,ESE,112,0.0,0.0,81,0.00,,,0.00,WUHU21623XXSP,2013-06-17 08:58:00,
2013-06-17 02:00:00,57.0,51.2,30.07,ESE,112,0.0,0.0,81,0.00,,,0.00,WUHU21623XXSP,2013-06-17 09:00:00,
2013-06-17 02:01:00,57.0,51.2,30.08,ESE,112,0.0,0.0,81,0.00,,,0.00,WUHU21623XXSP,2013-06-17 09:01:00,
2013-06-17 02:03:00,57.0,51.2,30.07,ESE,112,0.0,0.0,81,0.00,,,0.00,WUHU21623XXSP,2013-06-17 09:03:00,
2013-06-17 02:05:00,57.0,51.2,30.07,ESE,112,0.0,0.0,81,0.00,,,0.00,WUHU21623XXSP,2013-06-17 09:05:00,
2013-06-17 02:06:00,57.0,51.2,30.07,ESE,112,0.0,0.0,81,0.00,,,0.00,WUHU21623XXSP,2013-06-17 09:06:00,
2013-06-17 02:07:00,57.0,51.2,30.07,ESE,112,0.0,0.0,81,0.00,,,0.00,WUHU21623XXSP,2013-06-17 09:07:00,
2013-06-17 02:08:00,57.0,51.2,30.07,ESE,112,0.0,0.0,81,0.00,,,0.00,WUHU21623XXSP,2013-06-17 09:08:00,
2013-06-17 02:10:00,57.0,51.2,30.07,ESE,112,0.0,0.0,81,0.00,,,0.00,WUHU21623XXSP,2013-06-17 09:10:00,
2013-06-17 02:11:00,57.0,51.2,30.07,ESE,112,0.0,0.0,81,0.00,,,0.00,WUHU21623XXSP,2013-06-17 09:11:00,
2013-06-17 02:12:00,57.0,51.2,30.07,ESE,112,0.0,0.0,81,0.00,,,0.00,WUHU21623XXSP,2013-06-17 09:12:00,
2013-06-17 02:13:00,57.0,51.2,30.07,ESE,112,0.0,0.0,81,0.00,,,0.00,WUHU21623XXSP,2013-06-17 09:13:00,
2013-06-17 02:15:00,57.0,51.5,30.07,ESE,112,0.0,0.0,82,0.00,,,0.00,WUHU21623XXSP,2013-06-17 09:15:00,
2013-06-17 02:16:00,57.0,51.5,30.07,ESE,112,0.0,0.0,82,0.00,,,0.00,WUHU21623XXSP,2013-06-17 09:16:00,
2013-06-17 02:17:00,57.0,51.5,30.07,ESE,112,0.0,0.0,82,0.00,,,0.00,WUHU21623XXSP,2013-06-17 09:17:00,
2013-06-17 02:18:00,57.0,51.5,30.07,ESE,112,0.0,0.0,82,0.00,,,0.00,WUHU21623XXSP,2013-06-17 09:18:00,
2013-06-17 02:20:00,57.0,51.5,30.07,ESE,112,0.0,0.0,82,0.00,,,0.00,WUHU21623XXSP,2013-06-17 09:20:00,
2013-06-17 02:21:00,57.0,51.5,30.07,ESE,112,0.0,0.0,82,0.00,,,0.00,WUHU21623XXSP,2013-06-17 09:21:00,
2013-06-17 02:22:00,57.0,51.5,30.07,ESE,112,0.0,0.0,82,0.00,,,0.00,WUHU21623XXSP,2013-06-17 09:22:00,
2013-06-17 02:23:00,57.0,51.5,30.07,ESE,112,0.0,0.0,82,0.00,,,0.00,WUHU21623XXSP,2013-06-17 09:23:00,
2013-06-17 02:26:00,57.0,51.5,30.07,ESE,112,0.0,0.0,82,0.00,,,0.00,WUHU21623XXSP,2013-06-17 09:26:00,
2013-06-17 02:27:00,57.0,51.5,30.07,ESE,112,0.0,0.0,82,0.00,,,0.00,WUHU21623XXSP,2013-06-17 09:27:00,
2013-06-17 02:28:00,57.0,51.5,30.07,ESE,112,0.0,0.0,82,0.00,,,0.00,WUHU21623XXSP,2013-06-17 09:28:00,
2013-06-17 02:31:00,56.8,51.4,30.06,ESE,112,0.0,0.0,82,0.00,,,0.00,WUHU21623XXSP,2013-06-17 09:31:00,
2013-06-17 02:32:00,56.8,51.4,30.07,ESE,112,0.0,0.0,82,0.00,,,0.00,WUHU21623XXSP,2013-06-17 09:32:00,
2013-06-17 02:33:00,56.8,51.4,30.06,ESE,112,0.0,0.0,82,0.00,,,0.00,WUHU21623XXSP,2013-06-17 09:33:00,
2013-06-17 02:36:00,56.8,51.4,30.07,ESE,112,0.0,0.0,82,0.00,,,0.00,WUHU21623XXSP,2013-06-17 09:36:00,
2013-06-17 02:37:00,56.8,51.4,30.07,ESE,112,0.0,0.0,82,0.00,,,0.00,WUHU21623XXSP,2013-06-17 09:37:00,
2013-06-17 02:39:00,56.8,51.4,30.06,ESE,112,0.0,0.0,82,0.00,,,0.00,WUHU21623XXSP,2013-06-17 09:39:00,
2013-06-17 02:41:00,56.8,51.4,30.06,ESE,112,0.0,0.0,82,0.00,,,0.00,WUHU21623XXSP,2013-06-17 09:41:00,
2013-06-17 02:42:00,56.7,51.2,30.06,ESE,112,0.0,0.0,82,0.00,,,0.00,WUHU21623XXSP,2013-06-17 09:42:00,
2013-06-17 02:44:00,56.5,51.0,30.06,ESE,112,0.0,0.0,82,0.00,,,0.00,WUHU21623XXSP,2013-06-17 09:44:00,
2013-06-17 02:46:00,56.5,51.0,30.06,ESE,112,0.0,0.0,82,0.00,,,0.00,WUHU21623XXSP,2013-06-17 09:46:00,
2013-06-17 02:47:00,56.5,51.0,30.06,ESE,112,0.0,0.0,82,0.00,,,0.00,WUHU21623XXSP,2013-06-17 09:47:00,
2013-06-17 02:48:00,56.5,51.0,30.05,ESE,112,0.0,0.0,82,0.00,,,0.00,WUHU21623XXSP,2013-06-17 09:48:00,
2013-06-17 02:49:00,56.5,51.0,30.05,ESE,112,0.0,0.0,82,0.00,,,0.00,WUHU21623XXSP,2013-06-17 09:49:00,
2013-06-17 02:51:00,56.3,50.8,30.05,ESE,112,0.0,0.0,82,0.00,,,0.00,WUHU21623XXSP,2013-06-17 09:51:00,
2013-06-17 02:52:00,56.3,50.8,30.05,ESE,112,0.0,0.0,82,0.00,,,0.00,WUHU21623XXSP,2013-06-17 09:52:00,
2013-06-17 02:54:00,56.1,50.6,30.05,ESE,112,0.0,0.0,82,0.00,,,0.00,WUHU21623XXSP,2013-06-17 09:54:00,
2013-06-17 02:56:00,56.1,50.6,30.05,ESE,112,0.0,0.0,82,0.00,,,0.00,WUHU21623XXSP,2013-06-17 09:56:00,
2013-06-17 02:58:00,56.1,50.6,30.05,ESE,112,0.0,0.0,82,0.00,,,0.00,WUHU21623XXSP,2013-06-17 09:58:00,
2013-06-17 02:59:00,55.9,50.5,30.05,ESE,112,0.0,0.0,82,0.00,,,0.00,WUHU21623XXSP,2013-06-17 09:59:00,
2013-06-17 03:02:00,55.9,50.5,30.05,ESE,112,0.0,0.0,82,0.00,,,0.00,WUHU21623XXSP,2013-06-17 10:02:00,
2013-06-17 03:03:00,55.9,50.5,30.05,ESE,112,0.0,0.0,82,0.00,,,0.00,WUHU21623XXSP,2013-06-17 10:03:00,
2013-06-17 03:04:00,55.9,50.5,30.05,ESE,112,0.0,0.0,82,0.00,,,0.00,WUHU21623XXSP,2013-06-17 10:04:00,
2013-06-17 03:07:00,55.8,50.3,30.05,ESE,112,0.0,0.0,82,0.00,,,0.00,WUHU21623XXSP,2013-06-17 10:07:00,
2013-06-17 03:08:00,55.8,50.3,30.05,ESE,112,0.0,0.0,82,0.00,,,0.00,WUHU21623XXSP,2013-06-17 10:08:00,
2013-06-17 03:09:00,55.8,50.3,30.05,ESE,112,0.0,0.0,82,0.00,,,0.00,WUHU21623XXSP,2013-06-17 10:09:00,
2013-06-17 03:10:00,55.8,50.3,30.05,ESE,112,0.0,0.0,82,0.00,,,0.00,WUHU21623XXSP,2013-06-17 10:10:00,
2013-06-17 03:12:00,55.6,50.1,30.05,ESE,112,0.0,0.0,82,0.00,,,0.00,WUHU21623XXSP,2013-06-17 10:12:00,
2013-06-17 03:13:00,55.6,50.1,30.05,ESE,112,0.0,0.0,82,0.00,,,0.00,WUHU21623XXSP,2013-06-17 10:13:00,
2013-06-17 03:14:00,55.4,49.9,30.04,ESE,112,0.0,0.0,82,0.00,,,0.00,WUHU21623XXSP,2013-06-17 10:14:00,
2013-06-17 03:15:00,55.4,49.9,30.04,ESE,112,0.0,0.0,82,0.00,,,0.00,WUHU21623XXSP,2013-06-17 10:15:00,
2013-06-17 03:17:00,55.2,49.7,30.05,ESE,112,0.0,0.0,82,0.00,,,0.00,WUHU21623XXSP,2013-06-17 10:17:00,
2013-06-17 03:18:00,55.2,49.7,30.04,ESE,112,0.0,0.0,82,0.00,,,0.00,WUHU21623XXSP,2013-06-17 10:18:00,
2013-06-17 03:20:00,55.2,49.7,30.05,ESE,112,0.0,0.0,82,0.00,,,0.00,WUHU21623XXSP,2013-06-17 10:20:00,
2013-06-17 03:22:00,55.0,49.6,30.05,ESE,112,0.0,0.0,82,0.00,,,0.00,WUHU21623XXSP,2013-06-17 10:22:00,
2013-06-17 03:23:00,55.0,49.6,30.05,ESE,112,0.0,0.0,82,0.00,,,0.00,WUHU21623XXSP,2013-06-17 10:23:00,
2013-06-17 03:25:00,55.0,49.6,30.04,ESE,112,0.0,0.0,82,0.00,,,0.00,WUHU21623XXSP,2013-06-17 10:25:00,
2013-06-17 03:27:00,54.9,49.4,30.05,ESE,112,0.0,0.0,82,0.00,,,0.00,WUHU21623XXSP,2013-06-17 10:27:00,
2013-06-17 03:28:00,54.7,49.3,30.05,ESE,112,0.0,0.0,82,0.00,,,0.00,WUHU21623XXSP,2013-06-17 10:28:00,
2013-06-17 03:29:00,54.7,49.3,30.05,ESE,112,0.0,0.0,82,0.00,,,0.00,WUHU21623XXSP,2013-06-17 10:29:00,
2013-06-17 03:30:00,54.7,49.3,30.05,ESE,112,0.0,0.0,82,0.00,,,0.00,WUHU21623XXSP,2013-06-17 10:30:00,
2013-06-17 03:32:00,54.5,49.1,30.04,ESE,112,0.0,0.0,82,0.00,,,0.00,WUHU21623XXSP,2013-06-17 10:32:00,
2013-06-17 03:33:00,54.5,49.1,30.05,ESE,112,0.0,0.0,82,0.00,,,0.00,WUHU21623XXSP,2013-06-17 10:33:00,
2013-06-17 03:34:00,54.5,49.1,30.04,ESE,112,0.0,0.0,82,0.00,,,0.00,WUHU21623XXSP,2013-06-17 10:34:00,
2013-06-17 03:35:00,54.5,49.1,30.04,ESE,112,0.0,0.0,82,0.00,,,0.00,WUHU21623XXSP,2013-06-17 10:35:00,
2013-06-17 03:38:00,54.3,48.9,30.05,ESE,112,0.0,0.0,82,0.00,,,0.00,WUHU21623XXSP,2013-06-17 10:38:00,
2013-06-17 03:39:00,54.3,48.9,30.04,ESE,112,0.0,0.0,82,0.00,,,0.00,WUHU21623XXSP,2013-06-17 10:39:00,
2013-06-17 03:40:00,54.3,48.9,30.04,ESE,112,0.0,0.0,82,0.00,,,0.00,WUHU21623XXSP,2013-06-17 10:40:00,
2013-06-17 03:41:00,54.1,48.8,30.04,ESE,112,0.0,0.0,82,0.00,,,0.00,WUHU21623XXSP,2013-06-17 10:41:00,
2013-06-17 03:43:00,54.1,48.8,30.04,ESE,112,0.0,0.0,82,0.00,,,0.00,WUHU21623XXSP,2013-06-17 10:43:00,
2013-06-17 03:44:00,54.0,48.6,30.04,ESE,112,0.0,0.0,82,0.00,,,0.00,WUHU21623XXSP,2013-06-17 10:44:00,
2013-06-17 03:45:00,54.0,48.6,30.04,ESE,112,0.0,0.0,82,0.00,,,0.00,WUHU21623XXSP,2013-06-17 10:45:00,
2013-06-17 03:46:00,54.0,48.6,30.04,ESE,112,0.0,0.0,82,0.00,,,0.00,WUHU21623XXSP,2013-06-17 10:46:00,
2013-06-17 03:48:00,53.8,48.4,30.04,ESE,112,0.0,0.0,82,0.00,,,0.00,WUHU21623XXSP,2013-06-17 10:48:00,
2013-06-17 03:49:00,53.8,48.4,30.04,ESE,112,0.0,0.0,82,0.00,,,0.00,WUHU21623XXSP,2013-06-17 10:49:00,
2013-06-17 03:50:00,53.8,48.4,30.04,ESE,112,0.0,0.0,82,0.00,,,0.00,WUHU21623XXSP,2013-06-17 10:50:00,
2013-06-17 03:51:00,53.8,48.4,30.04,ESE,112,0.0,0.0,82,0.00,,,0.00,WUHU21623XXSP,2013-06-17 10:51:00,
2013-06-17 03:53:00,53.6,48.3,30.04,ESE,112,0.0,0.0,82,0.00,,,0.00,WUHU21623XXSP,2013-06-17 10:53:00,
2013-06-17 03:54:00,53.4,48.1,30.04,ESE,112,0.0,0.0,82,0.00,,,0.00,WUHU21623XXSP,2013-06-17 10:54:00,
2013-06-17 03:55:00,53.4,48.1,30.04,ESE,112,0.0,0.0,82,0.00,,,0.00,WUHU21623XXSP,2013-06-17 10:55:00,
2013-06-17 03:56:00,53.4,48.4,30.04,ESE,112,0.0,0.0,83,0.00,,,0.00,WUHU21623XXSP,2013-06-17 10:56:00,
2013-06-17 03:58:00,53.4,48.4,30.04,ESE,112,0.0,0.0,83,0.00,,,0.00,WUHU21623XXSP,2013-06-17 10:58:00,
2013-06-17 03:59:00,53.4,48.4,30.04,ESE,112,0.0,0.0,83,0.00,,,0.00,WUHU21623XXSP,2013-06-17 10:59:00,
2013-06-17 04:00:00,53.4,48.4,30.04,ESE,112,0.0,0.0,83,0.00,,,0.00,WUHU21623XXSP,2013-06-17 11:00:00,
2013-06-17 04:01:00,53.2,48.2,30.04,ESE,112,0.0,0.0,83,0.00,,,0.00,WUHU21623XXSP,2013-06-17 11:01:00,
2013-06-17 04:02:00,53.2,48.2,30.04,ESE,112,0.0,0.0,83,0.00,,,0.00,WUHU21623XXSP,2013-06-17 11:02:00,
2013-06-17 04:04:00,53.2,48.2,30.04,ESE,112,0.0,0.0,83,0.00,,,0.00,WUHU21623XXSP,2013-06-17 11:04:00,
2013-06-17 04:05:00,53.2,48.2,30.04,ESE,112,0.0,0.0,83,0.00,,,0.00,WUHU21623XXSP,2013-06-17 11:05:00,
2013-06-17 04:06:00,53.2,48.2,30.04,ESE,112,0.0,0.0,83,0.00,,,0.00,WUHU21623XXSP,2013-06-17 11:06:00,
2013-06-17 04:07:00,53.2,48.2,30.04,ESE,112,0.0,0.0,83,0.00,,,0.00,WUHU21623XXSP,2013-06-17 11:07:00,
2013-06-17 04:10:00,52.9,47.9,30.03,ESE,112,0.0,0.0,83,0.00,,,0.00,WUHU21623XXSP,2013-06-17 11:10:00,
2013-06-17 04:11:00,52.9,47.9,30.04,ESE,112,0.0,0.0,83,0.00,,,0.00,WUHU21623XXSP,2013-06-17 11:11:00,
2013-06-17 04:12:00,52.9,47.9,30.03,ESE,112,0.0,0.0,83,0.00,,,0.00,WUHU21623XXSP,2013-06-17 11:12:00,
2013-06-17 04:15:00,52.9,47.9,30.03,SE,135,0.0,0.0,83,0.00,,,0.00,WUHU21623XXSP,2013-06-17 11:15:00,
2013-06-17 04:16:00,52.9,47.9,30.04,SE,135,0.0,0.0,83,0.00,,,0.00,WUHU21623XXSP,2013-06-17 11:16:00,
2013-06-17 04:17:00,52.9,47.9,30.04,SE,135,0.0,0.0,83,0.00,,,0.00,WUHU21623XXSP,2013-06-17 11:17:00,
2013-06-17 04:20:00,52.7,47.7,30.03,SE,135,0.0,0.0,83,0.00,,,0.00,WUHU21623XXSP,2013-06-17 11:20:00,
2013-06-17 04:21:00,52.9,47.9,30.03,SE,135,0.0,0.0,83,0.00,,,0.00,WUHU21623XXSP,2013-06-17 11:21:00,
2013-06-17 04:22:00,52.9,47.9,30.03,SE,135,0.0,0.0,83,0.00,,,0.00,WUHU21623XXSP,2013-06-17 11:22:00,
2013-06-17 04:23:00,52.9,47.9,30.03,SE,135,0.0,0.0,83,0.00,,,0.00,WUHU21623XXSP,2013-06-17 11:23:00,
2013-06-17 04:25:00,52.7,47.7,30.03,SE,135,0.0,0.0,83,0.00,,,0.00,WUHU21623XXSP,2013-06-17 11:25:00,
2013-06-17 04:26:00,52.7,47.7,30.03,SE,135,0.0,0.0,83,0.00,,,0.00,WUHU21623XXSP,2013-06-17 11:26:00,
2013-06-17 04:27:00,52.7,47.7,30.03,SE,135,0.0,0.0,83,0.00,,,0.00,WUHU21623XXSP,2013-06-17 11:27:00,
2013-06-17 04:28:00,52.7,47.7,30.03,SE,135,0.0,0.0,83,0.00,,,0.00,WUHU21623XXSP,2013-06-17 11:28:00,
2013-06-17 04:30:00,52.7,48.0,30.04,SE,135,0.0,0.0,84,0.00,,,0.00,WUHU21623XXSP,2013-06-17 11:30:00,
2013-06-17 04:31:00,52.7,48.0,30.04,SE,135,0.0,0.0,84,0.00,,,0.00,WUHU21623XXSP,2013-06-17 11:31:00,
2013-06-17 04:32:00,52.7,48.0,30.03,SE,135,0.0,0.0,84,0.00,,,0.00,WUHU21623XXSP,2013-06-17 11:32:00,
2013-06-17 04:33:00,52.7,48.0,30.03,SE,135,0.0,0.0,84,0.00,,,0.00,WUHU21623XXSP,2013-06-17 11:33:00,
2013-06-17 04:36:00,52.5,47.8,30.03,SE,135,0.0,0.0,84,0.00,,,0.00,WUHU21623XXSP,2013-06-17 11:36:00,
2013-06-17 04:37:00,52.5,47.8,30.03,SE,135,0.0,0.0,84,0.00,,,0.00,WUHU21623XXSP,2013-06-17 11:37:00,
2013-06-17 04:38:00,52.5,47.8,30.03,SE,135,0.0,0.0,84,0.00,,,0.00,WUHU21623XXSP,2013-06-17 11:38:00,
2013-06-17 04:41:00,52.5,47.8,30.03,SE,135,0.0,0.0,84,0.00,,,0.00,WUHU21623XXSP,2013-06-17 11:41:00,
2013-06-17 04:42:00,52.5,47.8,30.03,SE,135,0.0,0.0,84,0.00,,,0.00,WUHU21623XXSP,2013-06-17 11:42:00,
2013-06-17 04:43:00,52.5,47.8,30.04,SE,135,0.0,0.0,84,0.00,,,0.00,WUHU21623XXSP,2013-06-17 11:43:00,
2013-06-17 04:46:00,52.3,47.6,30.03,SE,135,0.0,0.0,84,0.00,,,0.00,WUHU21623XXSP,2013-06-17 11:46:00,
2013-06-17 04:47:00,52.3,47.6,30.03,SE,135,0.0,0.0,84,0.00,,,0.00,WUHU21623XXSP,2013-06-17 11:47:00,
2013-06-17 04:48:00,52.3,47.6,30.03,SE,135,0.0,0.0,84,0.00,,,0.00,WUHU21623XXSP,2013-06-17 11:48:00,
2013-06-17 04:51:00,52.3,47.6,30.03,SE,135,0.0,0.0,84,0.00,,,0.00,WUHU21623XXSP,2013-06-17 11:51:00,
2013-06-17 04:52:00,52.2,47.4,30.03,SE,135,0.0,0.0,84,0.00,,,0.00,WUHU21623XXSP,2013-06-17 11:52:00,
2013-06-17 04:53:00,52.2,47.4,30.03,SE,135,0.0,0.0,84,0.00,,,0.00,WUHU21623XXSP,2013-06-17 11:53:00,
2013-06-17 04:56:00,52.0,47.3,30.03,SE,135,0.0,0.0,84,0.00,,,0.00,WUHU21623XXSP,2013-06-17 11:56:00,
2013-06-17 04:57:00,52.0,47.3,30.03,SE,135,0.0,0.0,84,0.00,,,0.00,WUHU21623XXSP,2013-06-17 11:57:00,
2013-06-17 04:58:00,52.0,47.3,30.03,SE,135,0.0,0.0,84,0.00,,,0.00,WUHU21623XXSP,2013-06-17 11:58:00,
2013-06-17 04:59:00,52.0,47.3,30.03,SE,135,0.0,0.0,84,0.00,,,0.00,WUHU21623XXSP,2013-06-17 11:59:00,
2013-06-17 05:01:00,52.0,47.3,30.03,SE,135,0.0,0.0,84,0.00,,,0.00,WUHU21623XXSP,2013-06-17 12:01:00,
2013-06-17 05:02:00,52.0,47.3,30.03,SE,135,0.0,0.0,84,0.00,,,0.00,WUHU21623XXSP,2013-06-17 12:02:00,
2013-06-17 05:03:00,52.0,47.3,30.03,SE,135,0.0,0.0,84,0.00,,,0.00,WUHU21623XXSP,2013-06-17 12:03:00,
2013-06-17 05:04:00,52.0,47.3,30.03,SE,135,0.0,0.0,84,0.00,,,0.00,WUHU21623XXSP,2013-06-17 12:04:00,
2013-06-17 05:06:00,51.8,47.1,30.03,ESE,112,0.0,0.0,84,0.00,,,0.00,WUHU21623XXSP,2013-06-17 12:06:00,
2013-06-17 05:08:00,51.8,47.1,30.03,ESE,112,0.0,0.0,84,0.00,,,0.00,WUHU21623XXSP,2013-06-17 12:08:00,
2013-06-17 05:09:00,51.8,47.1,30.03,ESE,112,0.0,0.0,84,0.00,,,0.00,WUHU21623XXSP,2013-06-17 12:09:00,
2013-06-17 05:11:00,51.6,47.2,30.03,South,180,0.0,0.0,85,0.00,,,0.00,WUHU21623XXSP,2013-06-17 12:11:00,
2013-06-17 05:13:00,51.6,47.2,30.03,South,180,0.0,0.0,85,0.00,,,0.00,WUHU21623XXSP,2013-06-17 12:13:00,
2013-06-17 05:14:00,51.6,47.2,30.03,South,180,0.0,0.0,85,0.00,,,0.00,WUHU21623XXSP,2013-06-17 12:14:00,
2013-06-17 05:16:00,51.6,47.2,30.03,South,180,0.0,0.0,85,0.00,,,0.00,WUHU21623XXSP,2013-06-17 12:16:00,
2013-06-17 05:18:00,51.6,47.2,30.03,South,180,0.0,0.0,85,0.00,,,0.00,WUHU21623XXSP,2013-06-17 12:18:00,
2013-06-17 05:19:00,51.6,47.2,30.03,South,180,0.0,0.0,85,0.00,,,0.00,WUHU21623XXSP,2013-06-17 12:19:00,
2013-06-17 05:21:00,51.6,47.2,30.03,South,180,0.0,0.0,85,0.00,,,0.00,WUHU21623XXSP,2013-06-17 12:21:00,
2013-06-17 05:23:00,51.6,47.2,30.03,South,180,0.0,0.0,85,0.00,,,0.00,WUHU21623XXSP,2013-06-17 12:23:00,
2013-06-17 05:24:00,51.6,47.2,30.03,South,180,0.0,0.0,85,0.00,,,0.00,WUHU21623XXSP,2013-06-17 12:24:00,
2013-06-17 05:27:00,51.6,47.2,30.03,South,180,0.0,0.0,85,0.00,,,0.00,WUHU21623XXSP,2013-06-17 12:27:00,
2013-06-17 05:28:00,51.6,47.2,30.03,South,180,0.0,0.0,85,0.00,,,0.00,WUHU21623XXSP,2013-06-17 12:28:00,
2013-06-17 05:29:00,51.6,47.2,30.03,South,180,0.0,0.0,85,0.00,,,0.00,WUHU21623XXSP,2013-06-17 12:29:00,
2013-06-17 05:32:00,51.6,47.2,30.03,South,180,0.0,0.0,85,0.00,,,0.00,WUHU21623XXSP,2013-06-17 12:32:00,
2013-06-17 05:33:00,51.6,47.2,30.03,South,180,0.0,0.0,85,0.00,,,0.00,WUHU21623XXSP,2013-06-17 12:33:00,
2013-06-17 05:34:00,51.4,47.0,30.03,South,180,0.0,0.0,85,0.00,,,0.00,WUHU21623XXSP,2013-06-17 12:34:00,
2013-06-17 05:37:00,51.4,47.0,30.03,South,180,0.0,0.0,85,0.00,,,0.00,WUHU21623XXSP,2013-06-17 12:37:00,
2013-06-17 05:38:00,51.4,47.0,30.03,South,180,0.0,0.0,85,0.00,,,0.00,WUHU21623XXSP,2013-06-17 12:38:00,
2013-06-17 05:39:00,51.4,47.0,30.03,South,180,0.0,0.0,85,0.00,,,0.00,WUHU21623XXSP,2013-06-17 12:39:00,
2013-06-17 05:40:00,51.4,47.0,30.03,South,180,0.0,0.0,85,0.00,,,0.00,WUHU21623XXSP,2013-06-17 12:40:00,
2013-06-17 05:42:00,51.4,47.3,30.03,South,180,0.0,0.0,86,0.00,,,0.00,WUHU21623XXSP,2013-06-17 12:42:00,
2013-06-17 05:43:00,51.4,47.3,30.03,South,180,0.0,0.0,86,0.00,,,0.00,WUHU21623XXSP,2013-06-17 12:43:00,
2013-06-17 05:44:00,51.4,47.3,30.03,South,180,0.0,0.0,86,0.00,,,0.00,WUHU21623XXSP,2013-06-17 12:44:00,
2013-06-17 05:45:00,51.4,47.3,30.03,South,180,0.0,0.0,86,0.00,,,0.00,WUHU21623XXSP,2013-06-17 12:45:00,
2013-06-17 05:48:00,51.3,47.2,30.03,South,180,0.0,0.0,86,0.00,,,0.00,WUHU21623XXSP,2013-06-17 12:48:00,
2013-06-17 05:49:00,51.1,46.7,30.03,South,180,0.0,14.1,85,0.00,,,0.00,WUHU21623XXSP,2013-06-17 12:49:00,
2013-06-17 05:50:00,51.1,46.7,30.03,South,180,0.0,14.1,85,0.00,,,0.00,WUHU21623XXSP,2013-06-17 12:50:00,
2013-06-17 05:53:00,51.1,46.7,30.03,South,180,0.0,14.1,85,0.00,,,0.00,WUHU21623XXSP,2013-06-17 12:53:00,
2013-06-17 05:54:00,51.1,46.7,30.03,South,180,0.0,14.1,85,0.00,,,0.00,WUHU21623XXSP,2013-06-17 12:54:00,
2013-06-17 05:55:00,51.1,46.7,30.03,South,180,0.0,14.1,85,0.00,,,0.00,WUHU21623XXSP,2013-06-17 12:55:00,
2013-06-17 05:56:00,51.1,46.7,30.04,South,180,0.0,14.1,85,0.00,,,0.00,WUHU21623XXSP,2013-06-17 12:56:00,
2013-06-17 05:58:00,50.9,46.5,30.03,South,180,0.0,14.1,85,0.00,,,0.00,WUHU21623XXSP,2013-06-17 12:58:00,
2013-06-17 05:59:00,50.9,46.5,30.04,South,180,0.0,0.0,85,0.00,,,0.00,WUHU21623XXSP,2013-06-17 12:59:00,
2013-06-17 06:00:00,50.9,46.5,30.04,South,180,0.0,0.0,85,0.00,,,0.00,WUHU21623XXSP,2013-06-17 13:00:00,
2013-06-17 06:02:00,50.9,46.5,30.03,South,180,0.0,0.0,85,0.00,,,0.00,WUHU21623XXSP,2013-06-17 13:02:00,
2013-06-17 06:03:00,50.9,46.5,30.03,South,180,0.0,0.0,85,0.00,,,0.00,WUHU21623XXSP,2013-06-17 13:03:00,
2013-06-17 06:04:00,50.7,46.3,30.04,South,180,0.0,0.0,85,0.00,,,0.00,WUHU21623XXSP,2013-06-17 13:04:00,
2013-06-17 06:05:00,50.7,46.3,30.04,South,180,0.0,0.0,85,0.00,,,0.00,WUHU21623XXSP,2013-06-17 13:05:00,
2013-06-17 06:07:00,50.7,46.3,30.04,South,180,0.0,0.0,85,0.00,,,0.00,WUHU21623XXSP,2013-06-17 13:07:00,
2013-06-17 06:08:00,50.7,46.3,30.04,South,180,0.0,0.0,85,0.00,,,0.00,WUHU21623XXSP,2013-06-17 13:08:00,
2013-06-17 06:09:00,50.7,46.3,30.04,South,180,0.0,0.0,85,0.00,,,0.00,WUHU21623XXSP,2013-06-17 13:09:00,
2013-06-17 06:10:00,50.7,46.3,30.04,South,180,0.0,0.0,85,0.00,,,0.00,WUHU21623XXSP,2013-06-17 13:10:00,
2013-06-17 06:12:00,50.7,46.3,30.04,South,180,0.0,0.0,85,0.00,,,0.00,WUHU21623XXSP,2013-06-17 13:12:00,
2013-06-17 06:13:00,50.7,46.3,30.04,South,180,0.0,0.0,85,0.00,,,0.00,WUHU21623XXSP,2013-06-17 13:13:00,
2013-06-17 06:14:00,50.7,46.3,30.04,South,180,0.0,0.0,85,0.00,,,0.00,WUHU21623XXSP,2013-06-17 13:14:00,
2013-06-17 06:15:00,50.7,46.3,30.03,South,180,0.0,0.0,85,0.00,,,0.00,WUHU21623XXSP,2013-06-17 13:15:00,
2013-06-17 06:17:00,50.7,46.3,30.04,South,180,0.0,0.0,85,0.00,,,0.00,WUHU21623XXSP,2013-06-17 13:17:00,
2013-06-17 06:19:00,50.7,46.3,30.04,South,180,0.0,0.0,85,0.00,,,0.00,WUHU21623XXSP,2013-06-17 13:19:00,
2013-06-17 06:20:00,50.7,46.3,30.04,South,180,0.0,0.0,85,0.00,,,0.00,WUHU21623XXSP,2013-06-17 13:20:00,
2013-06-17 06:21:00,50.7,46.3,30.04,South,180,0.0,0.0,85,0.00,,,0.00,WUHU21623XXSP,2013-06-17 13:21:00,
2013-06-17 06:23:00,50.7,46.3,30.04,South,180,0.0,0.0,85,0.00,,,0.00,WUHU21623XXSP,2013-06-17 13:23:00,
2013-06-17 06:24:00,50.7,46.3,30.04,South,180,0.0,0.0,85,0.00,,,0.00,WUHU21623XXSP,2013-06-17 13:24:00,
2013-06-17 06:25:00,50.5,46.1,30.04,South,180,0.0,0.0,85,0.00,,,0.00,WUHU21623XXSP,2013-06-17 13:25:00,
2013-06-17 06:26:00,50.7,46.3,30.04,South,180,0.0,0.0,85,0.00,,,0.00,WUHU21623XXSP,2013-06-17 13:26:00,
2013-06-17 06:28:00,50.5,46.1,30.04,South,180,0.0,0.0,85,0.00,,,0.00,WUHU21623XXSP,2013-06-17 13:28:00,
2013-06-17 06:29:00,50.5,46.1,30.04,South,180,0.0,0.0,85,0.00,,,0.00,WUHU21623XXSP,2013-06-17 13:29:00,
2013-06-17 06:30:00,50.5,46.4,30.04,South,180,0.0,0.0,86,0.00,,,0.00,WUHU21623XXSP,2013-06-17 13:30:00,
2013-06-17 06:31:00,50.5,46.4,30.04,South,180,0.0,0.0,86,0.00,,,0.00,WUHU21623XXSP,2013-06-17 13:31:00,
2013-06-17 06:33:00,50.5,46.4,30.04,South,180,0.0,0.0,86,0.00,,,0.00,WUHU21623XXSP,2013-06-17 13:33:00,
2013-06-17 06:34:00,50.5,46.4,30.04,South,180,0.0,0.0,86,0.00,,,0.00,WUHU21623XXSP,2013-06-17 13:34:00,
2013-06-17 06:35:00,50.5,46.4,30.04,South,180,0.0,0.0,86,0.00,,,0.00,WUHU21623XXSP,2013-06-17 13:35:00,
2013-06-17 06:36:00,50.5,46.4,30.04,SSE,157,0.0,0.0,86,0.00,,,0.00,WUHU21623XXSP,2013-06-17 13:36:00,
2013-06-17 06:38:00,50.5,46.4,30.04,SSE,157,0.0,0.0,86,0.00,,,0.00,WUHU21623XXSP,2013-06-17 13:38:00,
2013-06-17 06:39:00,50.5,46.4,30.04,SSE,157,0.0,0.0,86,0.00,,,0.00,WUHU21623XXSP,2013-06-17 13:39:00,
2013-06-17 06:40:00,50.7,46.6,30.04,SSE,157,0.0,0.0,86,0.00,,,0.00,WUHU21623XXSP,2013-06-17 13:40:00,
2013-06-17 06:41:00,50.7,46.6,30.04,SSE,157,0.0,0.0,86,0.00,,,0.00,WUHU21623XXSP,2013-06-17 13:41:00,
2013-06-17 06:44:00,50.7,46.6,30.04,SSE,157,0.0,0.0,86,0.00,,,0.00,WUHU21623XXSP,2013-06-17 13:44:00,
2013-06-17 06:45:00,50.7,46.6,30.04,SSE,157,0.0,0.0,86,0.00,,,0.00,WUHU21623XXSP,2013-06-17 13:45:00,
2013-06-17 06:46:00,50.9,46.8,30.04,SSE,157,0.0,0.0,86,0.00,,,0.00,WUHU21623XXSP,2013-06-17 13:46:00,
2013-06-17 06:47:00,50.9,46.8,30.04,South,180,0.0,0.0,86,0.00,,,0.00,WUHU21623XXSP,2013-06-17 13:47:00,
2013-06-17 06:49:00,51.1,47.0,30.04,SE,135,0.0,0.0,86,0.00,,,0.00,WUHU21623XXSP,2013-06-17 13:49:00,
2013-06-17 06:50:00,51.1,47.0,30.04,SE,135,0.0,0.0,86,0.00,,,0.00,WUHU21623XXSP,2013-06-17 13:50:00,
2013-06-17 06:51:00,51.1,47.0,30.04,SE,135,0.0,0.0,86,0.00,,,0.00,WUHU21623XXSP,2013-06-17 13:51:00,
2013-06-17 06:52:00,51.3,47.2,30.04,SE,135,0.0,0.0,86,0.00,,,0.00,WUHU21623XXSP,2013-06-17 13:52:00,
2013-06-17 06:54:00,51.4,47.6,30.04,SE,135,0.0,0.0,87,0.00,,,0.00,WUHU21623XXSP,2013-06-17 13:54:00,
2013-06-17 06:55:00,51.4,47.6,30.04,SE,135,0.0,0.0,87,0.00,,,0.00,WUHU21623XXSP,2013-06-17 13:55:00,
2013-06-17 06:56:00,51.4,47.6,30.04,SE,135,0.0,0.0,87,0.00,,,0.00,WUHU21623XXSP,2013-06-17 13:56:00,
2013-06-17 06:57:00,51.4,47.6,30.04,SE,135,0.0,0.0,87,0.00,,,0.00,WUHU21623XXSP,2013-06-17 13:57:00,
2013-06-17 06:59:00,51.6,47.8,30.04,SE,135,0.0,0.0,87,0.00,,,0.00,WUHU21623XXSP,2013-06-17 13:59:00,
2013-06-17 07:00:00,51.6,47.8,30.04,SE,135,0.0,0.0,87,0.00,,,0.00,WUHU21623XXSP,2013-06-17 14:00:00,
2013-06-17 07:01:00,51.6,47.8,30.04,SE,135,0.0,0.0,87,0.00,,,0.00,WUHU21623XXSP,2013-06-17 14:01:00,
2013-06-17 07:02:00,51.6,47.8,30.04,SE,135,0.0,0.0,87,0.00,,,0.00,WUHU21623XXSP,2013-06-17 14:02:00,
2013-06-17 07:04:00,51.8,48.0,30.04,South,180,0.0,0.0,87,0.00,,,0.00,WUHU21623XXSP,2013-06-17 14:04:00,
2013-06-17 07:05:00,51.8,48.0,30.04,South,180,0.0,0.0,87,0.00,,,0.00,WUHU21623XXSP,2013-06-17 14:05:00,
2013-06-17 07:06:00,51.8,48.0,30.04,South,180,0.0,0.0,87,0.00,,,0.00,WUHU21623XXSP,2013-06-17 14:06:00,
2013-06-17 07:07:00,52.0,48.2,30.04,South,180,0.0,0.0,87,0.00,,,0.00,WUHU21623XXSP,2013-06-17 14:07:00,
2013-06-17 07:09:00,52.2,48.4,30.04,South,180,0.0,0.0,87,0.00,,,0.00,WUHU21623XXSP,2013-06-17 14:09:00,
2013-06-17 07:11:00,52.2,48.4,30.04,South,180,0.0,0.0,87,0.00,,,0.00,WUHU21623XXSP,2013-06-17 14:11:00,
2013-06-17 07:12:00,52.3,48.5,30.04,South,180,0.0,0.0,87,0.00,,,0.00,WUHU21623XXSP,2013-06-17 14:12:00,
2013-06-17 07:13:00,52.3,48.5,30.04,South,180,0.0,0.0,87,0.00,,,0.00,WUHU21623XXSP,2013-06-17 14:13:00,
2013-06-17 07:15:00,52.5,48.7,30.04,South,180,0.0,0.0,87,0.00,,,0.00,WUHU21623XXSP,2013-06-17 14:15:00,
2013-06-17 07:16:00,52.5,48.7,30.03,South,180,0.0,0.0,87,0.00,,,0.00,WUHU21623XXSP,2013-06-17 14:16:00,
2013-06-17 07:17:00,52.5,48.7,30.04,South,180,0.0,0.0,87,0.00,,,0.00,WUHU21623XXSP,2013-06-17 14:17:00,
2013-06-17 07:18:00,52.5,48.7,30.04,South,180,0.0,0.0,87,0.00,,,0.00,WUHU21623XXSP,2013-06-17 14:18:00,
2013-06-17 07:20:00,52.7,48.9,30.03,South,180,0.0,0.0,87,0.00,,,0.00,WUHU21623XXSP,2013-06-17 14:20:00,
2013-06-17 07:21:00,52.9,49.1,30.03,South,180,0.0,0.0,87,0.00,,,0.00,WUHU21623XXSP,2013-06-17 14:21:00,
2013-06-17 07:23:00,52.9,49.1,30.03,South,180,0.0,0.0,87,0.00,,,0.00,WUHU21623XXSP,2013-06-17 14:23:00,
2013-06-17 07:25:00,52.9,49.4,30.03,South,180,0.0,0.0,88,0.00,,,0.00,WUHU21623XXSP,2013-06-17 14:25:00,
2013-06-17 07:26:00,53.1,49.6,30.03,South,180,0.0,0.0,88,0.00,,,0.00,WUHU21623XXSP,2013-06-17 14:26:00,
2013-06-17 07:27:00,53.1,49.6,30.03,South,180,0.0,0.0,88,0.00,,,0.00,WUHU21623XXSP,2013-06-17 14:27:00,
2013-06-17 07:28:00,53.2,49.7,30.03,South,180,0.0,0.0,88,0.00,,,0.00,WUHU21623XXSP,2013-06-17 14:28:00,
2013-06-17 07:30:00,53.2,49.7,30.03,South,180,0.0,0.0,88,0.00,,,0.00,WUHU21623XXSP,2013-06-17 14:30:00,
2013-06-17 07:32:00,53.4,49.9,30.03,South,180,0.0,0.0,88,0.00,,,0.00,WUHU21623XXSP,2013-06-17 14:32:00,
2013-06-17 07:33:00,53.4,49.9,30.03,South,180,0.0,0.0,88,0.00,,,0.00,WUHU21623XXSP,2013-06-17 14:33:00,
2013-06-17 07:35:00,53.4,49.9,30.03,South,180,0.0,0.0,88,0.00,,,0.00,WUHU21623XXSP,2013-06-17 14:35:00,
2013-06-17 07:37:00,53.4,49.9,30.03,South,180,0.0,14.1,88,0.00,,,0.00,WUHU21623XXSP,2013-06-17 14:37:00,
2013-06-17 07:38:00,53.8,50.3,30.03,South,180,0.0,14.1,88,0.00,,,0.00,WUHU21623XXSP,2013-06-17 14:38:00,
2013-06-17 07:39:00,53.8,50.3,30.03,South,180,0.0,14.1,88,0.00,,,0.00,WUHU21623XXSP,2013-06-17 14:39:00,
2013-06-17 07:40:00,53.8,50.3,30.03,SE,135,0.0,14.1,88,0.00,,,0.00,WUHU21623XXSP,2013-06-17 14:40:00,
2013-06-17 07:42:00,53.8,50.3,30.04,SE,135,0.0,14.1,88,0.00,,,0.00,WUHU21623XXSP,2013-06-17 14:42:00,
2013-06-17 07:43:00,54.0,50.5,30.03,East,90,0.0,14.1,88,0.00,,,0.00,WUHU21623XXSP,2013-06-17 14:43:00,
2013-06-17 07:44:00,54.0,50.5,30.03,East,90,0.0,14.1,88,0.00,,,0.00,WUHU21623XXSP,2013-06-17 14:44:00,
2013-06-17 07:46:00,54.1,50.6,30.03,ESE,112,0.0,14.1,88,0.00,,,0.00,WUHU21623XXSP,2013-06-17 14:46:00,
2013-06-17 07:47:00,54.3,50.8,30.03,ESE,112,0.0,0.0,88,0.00,,,0.00,WUHU21623XXSP,2013-06-17 14:47:00,
2013-06-17 07:48:00,54.3,50.8,30.04,SE,135,0.0,0.0,88,0.00,,,0.00,WUHU21623XXSP,2013-06-17 14:48:00,
2013-06-17 07:49:00,54.3,50.8,30.03,SE,135,0.0,0.0,88,0.00,,,0.00,WUHU21623XXSP,2013-06-17 14:49:00,
2013-06-17 07:51:00,54.5,51.0,30.03,SE,135,0.0,0.0,88,0.00,,,0.00,WUHU21623XXSP,2013-06-17 14:51:00,
2013-06-17 07:52:00,54.5,51.0,30.03,SE,135,0.0,0.0,88,0.00,,,0.00,WUHU21623XXSP,2013-06-17 14:52:00,
2013-06-17 07:54:00,54.7,51.2,30.03,SE,135,0.0,0.0,88,0.00,,,0.00,WUHU21623XXSP,2013-06-17 14:54:00,
2013-06-17 07:56:00,54.9,51.3,30.03,ESE,112,0.0,0.0,88,0.00,,,0.00,WUHU21623XXSP,2013-06-17 14:56:00,
2013-06-17 07:57:00,55.0,51.5,30.03,ESE,112,0.0,0.0,88,0.00,,,0.00,WUHU21623XXSP,2013-06-17 14:57:00,
2013-06-17 07:59:00,55.0,51.5,30.03,ESE,112,3.1,3.1,88,0.00,,,0.00,WUHU21623XXSP,2013-06-17 14:59:00,
2013-06-17 08:00:00,55.2,51.7,30.03,South,180,0.0,3.1,88,0.00,,,0.00,WUHU21623XXSP,2013-06-17 15:00:00,
2013-06-17 08:01:00,55.2,51.7,30.03,South,180,0.0,3.1,88,0.00,,,0.00,WUHU21623XXSP,2013-06-17 15:01:00,
2013-06-17 08:02:00,55.2,51.7,30.03,South,180,0.0,3.1,88,0.00,,,0.00,WUHU21623XXSP,2013-06-17 15:02:00,
2013-06-17 08:04:00,55.2,51.7,30.03,South,180,0.0,3.1,88,0.00,,,0.00,WUHU21623XXSP,2013-06-17 15:04:00,
2013-06-17 08:05:00,55.2,51.7,30.03,NNW,337,0.0,3.1,88,0.00,,,0.00,WUHU21623XXSP,2013-06-17 15:05:00,
2013-06-17 08:07:00,55.4,51.9,30.04,NNW,337,0.0,3.1,88,0.00,,,0.00,WUHU21623XXSP,2013-06-17 15:07:00,
2013-06-17 08:08:00,55.4,51.9,30.04,SW,225,0.0,3.1,88,0.00,,,0.00,WUHU21623XXSP,2013-06-17 15:08:00,
2013-06-17 08:10:00,55.6,52.1,30.03,South,180,0.0,1.3,88,0.00,,,0.00,WUHU21623XXSP,2013-06-17 15:10:00,
2013-06-17 08:12:00,55.6,51.7,30.03,SSE,157,0.0,1.3,87,0.00,,,0.00,WUHU21623XXSP,2013-06-17 15:12:00,
2013-06-17 08:13:00,55.6,51.7,30.03,SSE,157,0.0,1.3,87,0.00,,,0.00,WUHU21623XXSP,2013-06-17 15:13:00,
2013-06-17 08:15:00,55.8,51.9,30.03,ESE,112,0.0,0.0,87,0.00,,,0.00,WUHU21623XXSP,2013-06-17 15:15:00,
2013-06-17 08:17:00,55.9,52.1,30.03,SSE,157,0.0,1.3,87,0.00,,,0.00,WUHU21623XXSP,2013-06-17 15:17:00,
2013-06-17 08:18:00,55.9,52.1,30.03,SSE,157,0.0,1.3,87,0.00,,,0.00,WUHU21623XXSP,2013-06-17 15:18:00,
2013-06-17 08:19:00,56.1,52.3,30.03,South,180,0.0,1.3,87,0.00,,,0.00,WUHU21623XXSP,2013-06-17 15:19:00,
2013-06-17 08:20:00,56.1,52.3,30.03,South,180,1.1,1.3,87,0.00,,,0.00,WUHU21623XXSP,2013-06-17 15:20:00,
2013-06-17 08:22:00,56.3,52.4,30.03,South,180,0.0,1.3,87,0.00,,,0.00,WUHU21623XXSP,2013-06-17 15:22:00,
2013-06-17 08:23:00,56.1,52.3,30.03,South,180,0.0,1.3,87,0.00,,,0.00,WUHU21623XXSP,2013-06-17 15:23:00,
2013-06-17 08:24:00,56.3,52.4,30.03,South,180,0.0,1.3,87,0.00,,,0.00,WUHU21623XXSP,2013-06-17 15:24:00,
2013-06-17 08:25:00,56.3,52.4,30.03,South,180,0.0,1.3,87,0.00,,,0.00,WUHU21623XXSP,2013-06-17 15:25:00,
2013-06-17 08:26:00,56.3,52.4,30.03,South,180,0.0,1.3,87,0.00,,,0.00,WUHU21623XXSP,2013-06-17 15:26:00,
2013-06-17 08:28:00,56.5,52.3,30.03,WSW,247,0.0,1.1,86,0.00,,,0.00,WUHU21623XXSP,2013-06-17 15:28:00,
2013-06-17 08:29:00,56.5,52.3,30.03,WSW,247,0.0,1.1,86,0.00,,,0.00,WUHU21623XXSP,2013-06-17 15:29:00,
2013-06-17 08:30:00,56.5,52.3,30.03,WSW,247,0.0,0.0,86,0.00,,,0.00,WUHU21623XXSP,2013-06-17 15:30:00,
2013-06-17 08:31:00,56.7,52.5,30.03,ESE,112,0.0,0.0,86,0.00,,,0.00,WUHU21623XXSP,2013-06-17 15:31:00,
2013-06-17 08:33:00,56.8,52.7,30.03,SE,135,0.0,0.0,86,0.00,,,0.00,WUHU21623XXSP,2013-06-17 15:33:00,
2013-06-17 08:34:00,56.8,52.7,30.03,SE,135,0.0,0.0,86,0.00,,,0.00,WUHU21623XXSP,2013-06-17 15:34:00,
2013-06-17 08:35:00,56.8,52.7,30.03,SE,135,0.0,0.0,86,0.00,,,0.00,WUHU21623XXSP,2013-06-17 15:35:00,
2013-06-17 08:37:00,56.8,52.3,30.03,ESE,112,0.0,0.0,85,0.00,,,0.00,WUHU21623XXSP,2013-06-17 15:37:00,
2013-06-17 08:38:00,56.8,52.3,30.03,ESE,112,0.0,0.0,85,0.00,,,0.00,WUHU21623XXSP,2013-06-17 15:38:00,
2013-06-17 08:40:00,57.0,52.8,30.03,SSE,157,0.0,0.0,86,0.00,,,0.00,WUHU21623XXSP,2013-06-17 15:40:00,
2013-06-17 08:42:00,57.0,52.8,30.03,ESE,112,0.0,0.0,86,0.00,,,0.00,WUHU21623XXSP,2013-06-17 15:42:00,
2013-06-17 08:43:00,57.0,52.8,30.03,ESE,112,0.0,0.0,86,0.00,,,0.00,WUHU21623XXSP,2013-06-17 15:43:00,
2013-06-17 08:45:00,57.4,52.9,30.03,ESE,112,0.0,0.0,85,0.00,,,0.00,WUHU21623XXSP,2013-06-17 15:45:00,
2013-06-17 08:47:00,57.4,52.9,30.03,WSW,247,0.0,0.0,85,0.00,,,0.00,WUHU21623XXSP,2013-06-17 15:47:00,
2013-06-17 08:48:00,57.4,52.9,30.03,SW,225,0.0,0.0,85,0.00,,,0.00,WUHU21623XXSP,2013-06-17 15:48:00,
2013-06-17 08:50:00,57.6,53.1,30.03,SW,225,0.0,0.0,85,0.00,,,0.00,WUHU21623XXSP,2013-06-17 15:50:00,
2013-06-17 08:52:00,57.6,53.1,30.03,WSW,247,0.0,1.6,85,0.00,,,0.00,WUHU21623XXSP,2013-06-17 15:52:00,
2013-06-17 08:53:00,57.7,53.2,30.03,West,270,0.0,1.6,85,0.00,,,0.00,WUHU21623XXSP,2013-06-17 15:53:00,
2013-06-17 08:54:00,57.7,53.2,30.03,West,270,0.0,1.6,85,0.00,,,0.00,WUHU21623XXSP,2013-06-17 15:54:00,
2013-06-17 08:55:00,57.7,52.9,30.03,WSW,247,0.0,1.6,84,0.00,,,0.00,WUHU21623XXSP,2013-06-17 15:55:00,
2013-06-17 08:59:00,57.9,53.4,30.03,SE,135,0.0,2.7,85,0.00,,,0.00,WUHU21623XXSP,2013-06-17 15:59:00,
2013-06-17 09:00:00,57.9,53.1,30.03,SSE,157,1.8,2.7,84,0.00,,,0.00,WUHU21623XXSP,2013-06-17 16:00:00,
2013-06-17 09:04:00,58.5,53.3,30.02,SW,225,0.0,2.7,83,0.00,,,0.00,WUHU21623XXSP,2013-06-17 16:04:00,
2013-06-17 09:05:00,58.5,53.3,30.02,South,180,0.0,1.8,83,0.00,,,0.00,WUHU21623XXSP,2013-06-17 16:05:00,
2013-06-17 09:06:00,58.6,53.5,30.02,SSE,157,1.1,1.8,83,0.00,,,0.00,WUHU21623XXSP,2013-06-17 16:06:00,
2013-06-17 09:09:00,58.8,53.7,30.02,East,90,0.0,1.8,83,0.00,,,0.00,WUHU21623XXSP,2013-06-17 16:09:00,
2013-06-17 09:10:00,58.8,53.7,30.02,NE,45,0.0,1.8,83,0.00,,,0.00,WUHU21623XXSP,2013-06-17 16:10:00,
2013-06-17 09:11:00,58.8,53.7,30.02,SW,225,2.2,2.2,83,0.00,,,0.00,WUHU21623XXSP,2013-06-17 16:11:00,
2013-06-17 09:14:00,59.2,54.0,30.02,WSW,247,2.0,4.7,83,0.00,,,0.00,WUHU21623XXSP,2013-06-17 16:14:00,
2013-06-17 09:15:00,59.5,54.1,30.02,WSW,247,0.0,4.7,82,0.00,,,0.00,WUHU21623XXSP,2013-06-17 16:15:00,
2013-06-17 09:16:00,59.5,54.1,30.02,WSW,247,0.0,4.7,82,0.00,,,0.00,WUHU21623XXSP,2013-06-17 16:16:00,
2013-06-17 09:19:00,59.9,54.4,30.02,SSW,202,0.0,6.3,82,0.00,,,0.00,WUHU21623XXSP,2013-06-17 16:19:00,
2013-06-17 09:20:00,60.1,54.6,30.02,WSW,247,0.0,6.3,82,0.00,,,0.00,WUHU21623XXSP,2013-06-17 16:20:00,
2013-06-17 09:21:00,60.1,54.6,30.02,SSW,202,3.6,6.3,82,0.00,,,0.00,WUHU21623XXSP,2013-06-17 16:21:00,
2013-06-17 09:24:00,60.4,55.0,30.02,West,270,0.0,6.3,82,0.00,,,0.00,WUHU21623XXSP,2013-06-17 16:24:00,
2013-06-17 09:25:00,60.6,55.1,30.02,WSW,247,2.9,6.3,82,0.00,,,0.00,WUHU21623XXSP,2013-06-17 16:25:00,
2013-06-17 09:26:00,60.6,54.8,30.02,WSW,247,3.1,6.3,81,0.00,,,0.00,WUHU21623XXSP,2013-06-17 16:26:00,
2013-06-17 09:29:00,61.0,55.2,30.02,West,270,2.0,5.1,81,0.00,,,0.00,WUHU21623XXSP,2013-06-17 16:29:00,
2013-06-17 09:30:00,61.0,55.2,30.02,SSW,202,2.9,5.1,81,0.00,,,0.00,WUHU21623XXSP,2013-06-17 16:30:00,
2013-06-17 09:31:00,61.0,54.8,30.02,WSW,247,1.1,5.1,80,0.00,,,0.00,WUHU21623XXSP,2013-06-17 16:31:00,
2013-06-17 09:32:00,61.2,55.0,30.02,WSW,247,4.0,5.1,80,0.00,,,0.00,WUHU21623XXSP,2013-06-17 16:32:00,
2013-06-17 09:34:00,61.3,55.2,30.02,SW,225,3.1,6.5,80,0.00,,,0.00,WUHU21623XXSP,2013-06-17 16:34:00,
2013-06-17 09:35:00,61.3,55.2,30.02,SW,225,3.4,6.5,80,0.00,,,0.00,WUHU21623XXSP,2013-06-17 16:35:00,
2013-06-17 09:36:00,61.5,55.0,30.02,West,270,5.8,6.5,79,0.00,,,0.00,WUHU21623XXSP,2013-06-17 16:36:00,
2013-06-17 09:37:00,61.3,54.8,30.02,West,270,1.3,6.5,79,0.00,,,0.00,WUHU21623XXSP,2013-06-17 16:37:00,
2013-06-17 09:39:00,61.5,55.0,30.02,WSW,247,4.7,7.8,79,0.00,,,0.00,WUHU21623XXSP,2013-06-17 16:39:00,
2013-06-17 09:40:00,61.5,55.0,30.02,WSW,247,4.7,7.8,79,0.00,,,0.00,WUHU21623XXSP,2013-06-17 16:40:00,
2013-06-17 09:41:00,61.5,55.0,30.02,West,270,0.0,7.8,79,0.00,,,0.00,WUHU21623XXSP,2013-06-17 16:41:00,
2013-06-17 09:42:00,61.5,54.6,30.02,West,270,3.6,7.8,78,0.00,,,0.00,WUHU21623XXSP,2013-06-17 16:42:00,
2013-06-17 09:44:00,61.5,54.6,30.02,WSW,247,6.0,7.8,78,0.00,,,0.00,WUHU21623XXSP,2013-06-17 16:44:00,
2013-06-17 09:45:00,61.7,54.8,30.02,SSW,202,4.0,7.8,78,0.00,,,0.00,WUHU21623XXSP,2013-06-17 16:45:00,
2013-06-17 09:47:00,61.7,54.8,30.02,West,270,2.0,7.8,78,0.00,,,0.00,WUHU21623XXSP,2013-06-17 16:47:00,
2013-06-17 09:49:00,61.7,54.4,30.02,WSW,247,7.8,7.8,77,0.00,,,0.00,WUHU21623XXSP,2013-06-17 16:49:00,
2013-06-17 09:50:00,61.7,54.4,30.02,WSW,247,2.2,7.8,77,0.00,,,0.00,WUHU21623XXSP,2013-06-17 16:50:00,
2013-06-17 09:51:00,61.7,54.4,30.02,WNW,292,0.0,7.8,77,0.00,,,0.00,WUHU21623XXSP,2013-06-17 16:51:00,
2013-06-17 09:52:00,61.7,54.4,30.02,SW,225,3.4,7.8,77,0.00,,,0.00,WUHU21623XXSP,2013-06-17 16:52:00,
2013-06-17 09:55:00,61.9,54.6,30.02,SW,225,2.7,7.8,77,0.00,,,0.00,WUHU21623XXSP,2013-06-17 16:55:00,
2013-06-17 09:56:00,62.1,54.7,30.02,West,270,3.4,7.8,77,0.00,,,0.00,WUHU21623XXSP,2013-06-17 16:56:00,
2013-06-17 09:57:00,62.2,54.9,30.02,SW,225,1.1,7.8,77,0.00,,,0.00,WUHU21623XXSP,2013-06-17 16:57:00,
2013-06-17 09:58:00,62.2,54.9,30.02,SW,225,10.3,10.3,77,0.00,,,0.00,WUHU21623XXSP,2013-06-17 16:58:00,
2013-06-17 10:00:00,62.2,54.9,30.02,WSW,247,3.1,10.3,77,0.00,,,0.00,WUHU21623XXSP,2013-06-17 17:00:00,
2013-06-17 10:01:00,62.4,55.1,30.02,WSW,247,6.5,10.3,77,0.00,,,0.00,WUHU21623XXSP,2013-06-17 17:01:00,
2013-06-17 10:02:00,62.4,55.1,30.02,West,270,0.4,10.3,77,0.00,,,0.00,WUHU21623XXSP,2013-06-17 17:02:00,
2013-06-17 10:03:00,62.4,54.7,30.02,WNW,292,0.0,10.3,76,0.00,,,0.00,WUHU21623XXSP,2013-06-17 17:03:00,
2013-06-17 10:05:00,62.8,55.0,30.02,NW,315,1.3,10.3,76,0.00,,,0.00,WUHU21623XXSP,2013-06-17 17:05:00,
2013-06-17 10:06:00,62.8,55.0,30.02,West,270,2.9,10.3,76,0.00,,,0.00,WUHU21623XXSP,2013-06-17 17:06:00,
2013-06-17 10:07:00,63.0,54.9,30.02,West,270,6.5,10.3,75,0.00,,,0.00,WUHU21623XXSP,2013-06-17 17:07:00,
2013-06-17 10:08:00,63.0,54.9,30.02,West,270,2.9,8.7,75,0.00,,,0.00,WUHU21623XXSP,2013-06-17 17:08:00,
2013-06-17 10:10:00,63.1,55.0,30.02,West,270,3.4,8.7,75,0.00,,,0.00,WUHU21623XXSP,2013-06-17 17:10:00,
2013-06-17 10:11:00,63.1,55.0,30.02,WSW,247,3.1,8.7,75,0.00,,,0.00,WUHU21623XXSP,2013-06-17 17:11:00,
2013-06-17 10:12:00,63.1,55.0,30.02,WSW,247,0.9,8.7,75,0.00,,,0.00,WUHU21623XXSP,2013-06-17 17:12:00,
2013-06-17 10:13:00,63.1,54.7,30.02,SSW,202,4.5,8.7,74,0.00,,,0.00,WUHU21623XXSP,2013-06-17 17:13:00,
2013-06-17 10:15:00,63.1,54.7,30.02,SW,225,6.0,8.7,74,0.00,,,0.00,WUHU21623XXSP,2013-06-17 17:15:00,
2013-06-17 10:16:00,63.3,54.9,30.02,WSW,247,6.9,10.1,74,0.00,,,0.00,WUHU21623XXSP,2013-06-17 17:16:00,
2013-06-17 10:17:00,63.3,54.9,30.02,SW,225,5.6,10.1,74,0.00,,,0.00,WUHU21623XXSP,2013-06-17 17:17:00,
2013-06-17 10:18:00,63.1,54.7,30.02,West,270,2.0,10.1,74,0.00,,,0.00,WUHU21623XXSP,2013-06-17 17:18:00,
2013-06-17 10:20:00,63.3,54.9,30.02,WSW,247,5.4,10.1,74,0.00,,,0.00,WUHU21623XXSP,2013-06-17 17:20:00,
2013-06-17 10:21:00,63.3,54.5,30.02,SW,225,2.0,10.1,73,0.00,,,0.00,WUHU21623XXSP,2013-06-17 17:21:00,
2013-06-17 10:22:00,63.3,54.5,30.02,SW,225,3.1,10.1,73,0.00,,,0.00,WUHU21623XXSP,2013-06-17 17:22:00,
2013-06-17 10:23:00,63.3,54.5,30.02,WSW,247,8.9,10.1,73,0.00,,,0.00,WUHU21623XXSP,2013-06-17 17:23:00,
2013-06-17 10:25:00,63.1,54.0,30.02,WSW,247,6.9,9.6,72,0.00,,,0.00,WUHU21623XXSP,2013-06-17 17:25:00,
2013-06-17 10:26:00,63.1,54.0,30.02,WSW,247,2.9,9.6,72,0.00,,,0.00,WUHU21623XXSP,2013-06-17 17:26:00,
2013-06-17 10:27:00,63.1,54.0,30.02,WSW,247,3.4,9.6,72,0.00,,,0.00,WUHU21623XXSP,2013-06-17 17:27:00,
2013-06-17 10:28:00,63.1,54.0,30.02,West,270,0.0,8.9,72,0.00,,,0.00,WUHU21623XXSP,2013-06-17 17:28:00,
2013-06-17 10:29:00,63.1,54.0,30.02,WSW,247,3.6,8.9,72,0.00,,,0.00,WUHU21623XXSP,2013-06-17 17:29:00,
2013-06-17 10:30:00,63.0,53.8,30.02,WSW,247,2.9,8.9,72,0.00,,,0.00,WUHU21623XXSP,2013-06-17 17:30:00,
2013-06-17 10:31:00,63.0,53.8,30.02,SW,225,3.6,8.9,72,0.00,,,0.00,WUHU21623XXSP,2013-06-17 17:31:00,
2013-06-17 10:32:00,62.8,53.6,30.02,West,270,5.8,8.9,72,0.00,,,0.00,WUHU21623XXSP,2013-06-17 17:32:00,
2013-06-17 10:33:00,62.8,53.6,30.02,West,270,0.0,7.6,72,0.00,,,0.00,WUHU21623XXSP,2013-06-17 17:33:00,
2013-06-17 10:34:00,62.8,53.6,30.02,WSW,247,3.4,7.6,72,0.00,,,0.00,WUHU21623XXSP,2013-06-17 17:34:00,
2013-06-17 10:35:00,62.8,54.0,30.02,WSW,247,3.1,7.4,73,0.00,,,0.00,WUHU21623XXSP,2013-06-17 17:35:00,
2013-06-17 10:36:00,62.8,54.0,30.03,NW,315,2.2,7.4,73,0.00,,,0.00,WUHU21623XXSP,2013-06-17 17:36:00,
2013-06-17 10:37:00,62.8,53.6,30.03,West,270,2.5,7.4,72,0.00,,,0.00,WUHU21623XXSP,2013-06-17 17:37:00,
2013-06-17 10:38:00,63.0,53.8,30.02,WSW,247,2.2,7.4,72,0.00,,,0.00,WUHU21623XXSP,2013-06-17 17:38:00,
2013-06-17 10:39:00,63.0,53.8,30.02,WSW,247,2.0,7.4,72,0.00,,,0.00,WUHU21623XXSP,2013-06-17 17:39:00,
2013-06-17 10:41:00,63.0,53.8,30.02,West,270,2.7,8.1,72,0.00,,,0.00,WUHU21623XXSP,2013-06-17 17:41:00,
2013-06-17 10:42:00,63.1,54.0,30.02,SW,225,4.3,8.1,72,0.00,,,0.00,WUHU21623XXSP,2013-06-17 17:42:00,
2013-06-17 10:44:00,63.1,54.0,30.02,WSW,247,4.9,8.1,72,0.00,,,0.00,WUHU21623XXSP,2013-06-17 17:44:00,
2013-06-17 10:46:00,63.3,54.1,30.03,SW,225,1.1,8.1,72,0.00,,,0.00,WUHU21623XXSP,2013-06-17 17:46:00,
2013-06-17 10:47:00,63.3,54.5,30.02,WSW,247,2.5,8.1,73,0.00,,,0.00,WUHU21623XXSP,2013-06-17 17:47:00,
2013-06-17 10:49:00,63.7,54.9,30.02,SW,225,0.0,8.1,73,0.00,,,0.00,WUHU21623XXSP,2013-06-17 17:49:00,
2013-06-17 10:50:00,63.7,54.9,30.02,SSW,202,3.1,6.9,73,0.00,,,0.00,WUHU21623XXSP,2013-06-17 17:50:00,
2013-06-17 10:51:00,63.7,54.9,30.03,West,270,2.5,6.9,73,0.00,,,0.00,WUHU21623XXSP,2013-06-17 17:51:00,
2013-06-17 10:52:00,63.9,54.7,30.02,WSW,247,3.6,9.6,72,0.00,,,0.00,WUHU21623XXSP,2013-06-17 17:52:00,
2013-06-17 10:53:00,63.9,54.7,30.02,WSW,247,2.9,9.6,72,0.00,,,0.00,WUHU21623XXSP,2013-06-17 17:53:00,
2013-06-17 10:54:00,63.9,54.7,30.03,WNW,292,0.0,9.6,72,0.00,,,0.00,WUHU21623XXSP,2013-06-17 17:54:00,
2013-06-17 10:55:00,64.0,54.5,30.03,WSW,247,14.8,14.8,71,0.00,,,0.00,WUHU21623XXSP,2013-06-17 17:55:00,
2013-06-17 10:56:00,64.0,54.9,30.02,SSW,202,4.5,14.8,72,0.00,,,0.00,WUHU21623XXSP,2013-06-17 17:56:00,
2013-06-17 10:58:00,64.2,55.0,30.02,West,270,0.0,14.8,72,0.00,,,0.00,WUHU21623XXSP,2013-06-17 17:58:00,
2013-06-17 10:59:00,64.2,54.7,30.02,WSW,247,3.6,14.8,71,0.00,,,0.00,WUHU21623XXSP,2013-06-17 17:59:00,
2013-06-17 11:00:00,64.2,54.7,30.02,WSW,247,2.9,14.8,71,0.00,,,0.00,WUHU21623XXSP,2013-06-17 18:00:00,
2013-06-17 11:01:00,64.6,55.0,30.02,WSW,247,3.1,14.8,71,0.00,,,0.00,WUHU21623XXSP,2013-06-17 18:01:00,
2013-06-17 11:03:00,64.6,55.0,30.02,WSW,247,5.1,14.8,71,0.00,,,0.00,WUHU21623XXSP,2013-06-17 18:03:00,
2013-06-17 11:04:00,64.8,55.2,30.02,SW,225,0.0,14.8,71,0.00,,,0.00,WUHU21623XXSP,2013-06-17 18:04:00,
2013-06-17 11:05:00,64.9,55.3,30.02,West,270,3.1,8.3,71,0.00,,,0.00,WUHU21623XXSP,2013-06-17 18:05:00,
2013-06-17 11:06:00,64.9,55.3,30.02,WNW,292,0.0,5.8,71,0.00,,,0.00,WUHU21623XXSP,2013-06-17 18:06:00,
2013-06-17 11:08:00,65.1,55.1,30.02,West,270,2.0,8.5,70,0.00,,,0.00,WUHU21623XXSP,2013-06-17 18:08:00,
2013-06-17 11:09:00,65.3,55.3,30.02,West,270,3.1,8.5,70,0.00,,,0.00,WUHU21623XXSP,2013-06-17 18:09:00,
2013-06-17 11:10:00,65.3,55.3,30.02,SW,225,1.6,8.5,70,0.00,,,0.00,WUHU21623XXSP,2013-06-17 18:10:00,
2013-06-17 11:12:00,65.5,55.5,30.02,WSW,247,6.0,8.5,70,0.00,,,0.00,WUHU21623XXSP,2013-06-17 18:12:00,
2013-06-17 11:13:00,65.7,55.2,30.02,SSW,202,4.3,8.5,69,0.00,,,0.00,WUHU21623XXSP,2013-06-17 18:13:00,
2013-06-17 11:15:00,65.8,55.4,30.02,West,270,0.4,8.5,69,0.00,,,0.00,WUHU21623XXSP,2013-06-17 18:15:00,
2013-06-17 11:16:00,65.8,55.4,30.02,South,180,0.7,8.5,69,0.00,,,0.00,WUHU21623XXSP,2013-06-17 18:16:00,
2013-06-17 11:17:00,65.8,55.4,30.02,WSW,247,3.4,8.3,69,0.00,,,0.00,WUHU21623XXSP,2013-06-17 18:17:00,
2013-06-17 11:18:00,66.0,55.1,30.02,WNW,292,2.7,8.3,68,0.00,,,0.00,WUHU21623XXSP,2013-06-17 18:18:00,
2013-06-17 11:20:00,66.0,55.1,30.02,SW,225,1.8,8.3,68,0.00,,,0.00,WUHU21623XXSP,2013-06-17 18:20:00,
2013-06-17 11:21:00,66.0,55.5,30.02,West,270,3.8,10.5,69,0.00,,,0.00,WUHU21623XXSP,2013-06-17 18:21:00,
2013-06-17 11:22:00,66.2,55.3,30.02,West,270,3.1,10.5,68,0.00,,,0.00,WUHU21623XXSP,2013-06-17 18:22:00,
2013-06-17 11:23:00,66.4,55.5,30.02,WSW,247,4.3,10.5,68,0.00,,,0.00,WUHU21623XXSP,2013-06-17 18:23:00,
2013-06-17 11:24:00,66.4,55.5,30.02,WSW,247,4.3,10.5,68,0.00,,,0.00,WUHU21623XXSP,2013-06-17 18:24:00,
2013-06-17 11:25:00,66.2,54.9,30.02,West,270,2.0,10.5,67,0.00,,,0.00,WUHU21623XXSP,2013-06-17 18:25:00,
2013-06-17 11:26:00,66.4,55.0,30.02,ESE,112,0.0,10.5,67,0.00,,,0.00,WUHU21623XXSP,2013-06-17 18:26:00,
2013-06-17 11:27:00,66.2,54.9,30.03,SW,225,5.4,10.5,67,0.00,,,0.00,WUHU21623XXSP,2013-06-17 18:27:00,
2013-06-17 11:29:00,66.2,54.9,30.03,West,270,2.0,10.5,67,0.00,,,0.00,WUHU21623XXSP,2013-06-17 18:29:00,
2013-06-17 11:30:00,66.0,54.7,30.02,SW,225,9.8,10.5,67,0.00,,,0.00,WUHU21623XXSP,2013-06-17 18:30:00,
2013-06-17 11:31:00,66.0,54.7,30.02,SW,225,4.5,9.8,67,0.00,,,0.00,WUHU21623XXSP,2013-06-17 18:31:00,
2013-06-17 11:32:00,66.2,54.9,30.03,WSW,247,2.7,9.8,67,0.00,,,0.00,WUHU21623XXSP,2013-06-17 18:32:00,
2013-06-17 11:35:00,66.0,54.7,30.03,WSW,247,2.0,9.8,67,0.00,,,0.00,WUHU21623XXSP,2013-06-17 18:35:00,
2013-06-17 11:36:00,66.0,54.7,30.03,NW,315,4.3,9.8,67,0.00,,,0.00,WUHU21623XXSP,2013-06-17 18:36:00,
2013-06-17 11:37:00,66.0,54.7,30.03,WSW,247,7.2,9.8,67,0.00,,,0.00,WUHU21623XXSP,2013-06-17 18:37:00,
2013-06-17 11:40:00,66.0,54.7,30.03,West,270,4.9,9.8,67,0.00,,,0.00,WUHU21623XXSP,2013-06-17 18:40:00,
2013-06-17 11:41:00,66.0,54.7,30.03,ENE,67,0.0,7.4,67,0.00,,,0.00,WUHU21623XXSP,2013-06-17 18:41:00,
2013-06-17 11:43:00,66.0,54.7,30.03,WSW,247,2.2,7.4,67,0.00,,,0.00,WUHU21623XXSP,2013-06-17 18:43:00,
2013-06-17 11:45:00,66.4,55.0,30.03,SSW,202,5.8,7.8,67,0.00,,,0.00,WUHU21623XXSP,2013-06-17 18:45:00,
2013-06-17 11:46:00,66.4,55.0,30.03,WSW,247,2.0,8.3,67,0.00,,,0.00,WUHU21623XXSP,2013-06-17 18:46:00,
2013-06-17 11:48:00,66.6,55.2,30.03,WSW,247,1.3,8.3,67,0.00,,,0.00,WUHU21623XXSP,2013-06-17 18:48:00,
2013-06-17 11:50:00,66.7,55.4,30.03,WNW,292,3.8,8.3,67,0.00,,,0.00,WUHU21623XXSP,2013-06-17 18:50:00,
2013-06-17 11:51:00,66.7,55.4,30.03,SSW,202,2.9,8.3,67,0.00,,,0.00,WUHU21623XXSP,2013-06-17 18:51:00,
2013-06-17 11:52:00,66.9,55.6,30.03,SSW,202,0.0,8.3,67,0.00,,,0.00,WUHU21623XXSP,2013-06-17 18:52:00,
2013-06-17 11:53:00,66.9,55.6,30.03,West,270,0.0,10.1,67,0.00,,,0.00,WUHU21623XXSP,2013-06-17 18:53:00,
2013-06-17 11:55:00,67.1,55.3,30.03,SW,225,4.3,10.1,66,0.00,,,0.00,WUHU21623XXSP,2013-06-17 18:55:00,
2013-06-17 11:56:00,67.1,55.3,30.03,SW,225,2.7,10.1,66,0.00,,,0.00,WUHU21623XXSP,2013-06-17 18:56:00,
2013-06-17 11:57:00,67.1,55.3,30.03,SSW,202,0.0,10.1,66,0.00,,,0.00,WUHU21623XXSP,2013-06-17 18:57:00,
2013-06-17 11:58:00,67.1,55.3,30.03,SW,225,0.0,10.1,66,0.00,,,0.00,WUHU21623XXSP,2013-06-17 18:58:00,
2013-06-17 12:00:00,67.3,55.5,30.03,West,270,0.0,10.1,66,0.00,,,0.00,WUHU21623XXSP,2013-06-17 19:00:00,
2013-06-17 12:01:00,67.3,55.5,30.03,SW,225,5.8,10.1,66,0.00,,,0.00,WUHU21623XXSP,2013-06-17 19:01:00,
2013-06-17 12:02:00,67.3,55.5,30.03,SW,225,2.5,10.1,66,0.00,,,0.00,WUHU21623XXSP,2013-06-17 19:02:00,
2013-06-17 12:03:00,67.3,55.1,30.03,SW,225,3.8,6.7,65,0.00,,,0.00,WUHU21623XXSP,2013-06-17 19:03:00,
2013-06-17 12:05:00,67.3,55.1,30.03,SW,225,2.2,6.7,65,0.00,,,0.00,WUHU21623XXSP,2013-06-17 19:05:00,
2013-06-17 12:06:00,67.3,55.1,30.03,West,270,1.6,6.7,65,0.00,,,0.00,WUHU21623XXSP,2013-06-17 19:06:00,
2013-06-17 12:07:00,67.3,55.1,30.03,WSW,247,0.0,6.7,65,0.00,,,0.00,WUHU21623XXSP,2013-06-17 19:07:00,
2013-06-17 12:08:00,67.3,55.1,30.02,SW,225,2.5,7.4,65,0.00,,,0.00,WUHU21623XXSP,2013-06-17 19:08:00,
2013-06-17 12:10:00,67.3,55.1,30.02,SW,225,8.9,8.9,65,0.00,,,0.00,WUHU21623XXSP,2013-06-17 19:10:00,
2013-06-17 12:12:00,67.3,55.1,30.03,WSW,247,8.7,8.9,65,0.00,,,0.00,WUHU21623XXSP,2013-06-17 19:12:00,
2013-06-17 12:13:00,66.9,54.3,30.02,SW,225,7.2,8.9,64,0.00,,,0.00,WUHU21623XXSP,2013-06-17 19:13:00,
2013-06-17 12:15:00,66.7,54.1,30.02,WSW,247,5.8,8.9,64,0.00,,,0.00,WUHU21623XXSP,2013-06-17 19:15:00,
2013-06-17 12:17:00,66.6,54.4,30.02,West,270,3.1,9.8,65,0.00,,,0.00,WUHU21623XXSP,2013-06-17 19:17:00,
2013-06-17 12:18:00,66.6,54.4,30.02,West,270,2.5,9.8,65,0.00,,,0.00,WUHU21623XXSP,2013-06-17 19:18:00,
2013-06-17 12:20:00,66.7,55.0,30.02,West,270,2.0,9.8,66,0.00,,,0.00,WUHU21623XXSP,2013-06-17 19:20:00,
2013-06-17 12:22:00,66.7,54.6,30.02,West,270,4.0,9.8,65,0.00,,,0.00,WUHU21623XXSP,2013-06-17 19:22:00,
2013-06-17 12:23:00,66.7,54.6,30.02,SW,225,6.5,9.8,65,0.00,,,0.00,WUHU21623XXSP,2013-06-17 19:23:00,
2013-06-17 12:25:00,66.7,55.0,30.02,SW,225,3.4,10.1,66,0.00,,,0.00,WUHU21623XXSP,2013-06-17 19:25:00,
2013-06-17 12:27:00,66.7,54.6,30.02,WSW,247,3.4,10.1,65,0.00,,,0.00,WUHU21623XXSP,2013-06-17 19:27:00,
2013-06-17 12:28:00,66.7,54.6,30.02,SSE,157,0.0,10.1,65,0.00,,,0.00,WUHU21623XXSP,2013-06-17 19:28:00,
2013-06-17 12:29:00,66.7,54.6,30.02,WSW,247,0.0,10.1,65,0.00,,,0.00,WUHU21623XXSP,2013-06-17 19:29:00,
2013-06-17 12:30:00,66.9,54.7,30.02,WSW,247,7.8,11.0,65,0.00,,,0.00,WUHU21623XXSP,2013-06-17 19:30:00,
2013-06-17 12:33:00,66.7,54.1,30.02,West,270,3.4,12.3,64,0.00,,,0.00,WUHU21623XXSP,2013-06-17 19:33:00,
2013-06-17 12:34:00,66.7,54.1,30.02,West,270,2.2,12.3,64,0.00,,,0.00,WUHU21623XXSP,2013-06-17 19:34:00,
2013-06-17 12:35:00,66.6,54.0,30.02,WSW,247,13.0,13.0,64,0.00,,,0.00,WUHU21623XXSP,2013-06-17 19:35:00,
2013-06-17 12:38:00,66.4,53.8,30.02,WSW,247,4.9,13.0,64,0.00,,,0.00,WUHU21623XXSP,2013-06-17 19:38:00,
2013-06-17 12:39:00,66.2,54.0,30.02,WSW,247,11.4,13.0,65,0.00,,,0.00,WUHU21623XXSP,2013-06-17 19:39:00,
2013-06-17 12:40:00,66.0,53.9,30.03,West,270,6.7,13.0,65,0.00,,,0.00,WUHU21623XXSP,2013-06-17 19:40:00,
2013-06-17 12:43:00,66.0,53.9,30.03,WSW,247,6.0,13.0,65,0.00,,,0.00,WUHU21623XXSP,2013-06-17 19:43:00,
2013-06-17 12:44:00,66.0,54.3,30.03,SW,225,4.5,13.0,66,0.00,,,0.00,WUHU21623XXSP,2013-06-17 19:44:00,
2013-06-17 12:45:00,66.0,54.3,30.03,WSW,247,6.9,11.4,66,0.00,,,0.00,WUHU21623XXSP,2013-06-17 19:45:00,
2013-06-17 12:48:00,66.0,54.3,30.03,West,270,0.0,11.4,66,0.00,,,0.00,WUHU21623XXSP,2013-06-17 19:48:00,
2013-06-17 12:49:00,66.0,54.7,30.02,SSW,202,10.5,11.4,67,0.00,,,0.00,WUHU21623XXSP,2013-06-17 19:49:00,
2013-06-17 12:51:00,66.4,55.0,30.03,West,270,2.2,10.5,67,0.00,,,0.00,WUHU21623XXSP,2013-06-17 19:51:00,
2013-06-17 12:53:00,66.9,55.1,30.03,South,180,1.1,10.5,66,0.00,,,0.00,WUHU21623XXSP,2013-06-17 19:53:00,
2013-06-17 12:54:00,67.1,55.3,30.03,WSW,247,2.9,10.5,66,0.00,,,0.00,WUHU21623XXSP,2013-06-17 19:54:00,
2013-06-17 12:56:00,67.3,55.5,30.03,WSW,247,5.6,10.5,66,0.00,,,0.00,WUHU21623XXSP,2013-06-17 19:56:00,
2013-06-17 12:59:00,67.3,54.6,30.03,SSW,202,0.0,11.6,64,0.00,,,0.00,WUHU21623XXSP,2013-06-17 19:59:00,
2013-06-17 13:01:00,67.6,55.4,30.03,WSW,247,1.3,11.6,65,0.00,,,0.00,WUHU21623XXSP,2013-06-17 20:01:00,
2013-06-17 13:04:00,67.8,55.6,30.03,SSE,157,2.9,11.6,65,0.00,,,0.00,WUHU21623XXSP,2013-06-17 20:04:00,
2013-06-17 13:06:00,67.8,55.1,30.03,WSW,247,0.7,11.6,64,0.00,,,0.00,WUHU21623XXSP,2013-06-17 20:06:00,
2013-06-17 13:09:00,68.2,55.5,30.03,WSW,247,5.8,7.8,64,0.00,,,0.00,WUHU21623XXSP,2013-06-17 20:09:00,
2013-06-17 13:10:00,68.4,55.7,30.03,WSW,247,6.5,8.1,64,0.00,,,0.00,WUHU21623XXSP,2013-06-17 20:10:00,
2013-06-17 13:11:00,68.5,55.7,30.03,West,270,0.2,8.1,64,0.00,,,0.00,WUHU21623XXSP,2013-06-17 20:11:00,
2013-06-17 13:14:00,68.4,55.2,30.03,South,180,0.0,8.1,63,0.00,,,0.00,WUHU21623XXSP,2013-06-17 20:14:00,
2013-06-17 13:15:00,68.4,55.2,30.03,WSW,247,4.0,8.1,63,0.00,,,0.00,WUHU21623XXSP,2013-06-17 20:15:00,
2013-06-17 13:16:00,68.4,55.2,30.03,West,270,5.8,8.1,63,0.00,,,0.00,WUHU21623XXSP,2013-06-17 20:16:00,
2013-06-17 13:19:00,68.2,55.1,30.02,SW,225,4.3,8.5,63,0.00,,,0.00,WUHU21623XXSP,2013-06-17 20:19:00,
2013-06-17 13:20:00,68.2,55.1,30.03,SW,225,0.0,10.3,63,0.00,,,0.00,WUHU21623XXSP,2013-06-17 20:20:00,
2013-06-17 13:21:00,67.8,54.7,30.03,SW,225,3.6,10.3,63,0.00,,,0.00,WUHU21623XXSP,2013-06-17 20:21:00,
2013-06-17 13:24:00,67.6,54.6,30.03,WSW,247,2.0,10.3,63,0.00,,,0.00,WUHU21623XXSP,2013-06-17 20:24:00,
2013-06-17 13:25:00,67.6,54.6,30.03,SW,225,2.5,10.3,63,0.00,,,0.00,WUHU21623XXSP,2013-06-17 20:25:00,
2013-06-17 13:26:00,67.5,54.4,30.03,SE,135,0.0,10.3,63,0.00,,,0.00,WUHU21623XXSP,2013-06-17 20:26:00,
2013-06-17 13:29:00,67.5,54.8,30.02,WSW,247,0.0,10.3,64,0.00,,,0.00,WUHU21623XXSP,2013-06-17 20:29:00,
2013-06-17 13:30:00,67.6,55.0,30.02,West,270,1.1,10.3,64,0.00,,,0.00,WUHU21623XXSP,2013-06-17 20:30:00,
2013-06-17 13:31:00,67.6,55.0,30.02,SW,225,0.0,10.3,64,0.00,,,0.00,WUHU21623XXSP,2013-06-17 20:31:00,
2013-06-17 13:34:00,67.8,54.7,30.02,West,270,5.4,5.8,63,0.00,,,0.00,WUHU21623XXSP,2013-06-17 20:34:00,
2013-06-17 13:35:00,67.8,54.7,30.02,WSW,247,3.8,5.8,63,0.00,,,0.00,WUHU21623XXSP,2013-06-17 20:35:00,
2013-06-17 13:36:00,67.8,54.7,30.02,South,180,0.0,5.8,63,0.00,,,0.00,WUHU21623XXSP,2013-06-17 20:36:00,
2013-06-17 13:39:00,67.8,55.1,30.02,SSE,157,0.0,5.8,64,0.00,,,0.00,WUHU21623XXSP,2013-06-17 20:39:00,
2013-06-17 13:40:00,67.8,55.1,30.02,SW,225,3.1,5.8,64,0.00,,,0.00,WUHU21623XXSP,2013-06-17 20:40:00,
2013-06-17 13:41:00,67.8,55.1,30.02,West,270,2.5,5.8,64,0.00,,,0.00,WUHU21623XXSP,2013-06-17 20:41:00,
2013-06-17 13:45:00,68.4,55.2,30.02,NW,315,0.0,6.5,63,0.00,,,0.00,WUHU21623XXSP,2013-06-17 20:45:00,
2013-06-17 13:46:00,68.4,55.2,30.02,WNW,292,0.0,7.4,63,0.00,,,0.00,WUHU21623XXSP,2013-06-17 20:46:00,
2013-06-17 13:47:00,68.5,55.4,30.02,SW,225,1.8,7.4,63,0.00,,,0.00,WUHU21623XXSP,2013-06-17 20:47:00,
2013-06-17 13:50:00,68.7,55.6,30.01,NW,315,0.0,7.4,63,0.00,,,0.00,WUHU21623XXSP,2013-06-17 20:50:00,
2013-06-17 13:51:00,68.7,55.6,30.02,WSW,247,1.3,7.4,63,0.00,,,0.00,WUHU21623XXSP,2013-06-17 20:51:00,
2013-06-17 13:52:00,68.9,55.8,30.02,WSW,247,0.0,7.4,63,0.00,,,0.00,WUHU21623XXSP,2013-06-17 20:52:00,
2013-06-17 13:55:00,69.3,55.7,30.02,SE,135,0.0,7.4,62,0.00,,,0.00,WUHU21623XXSP,2013-06-17 20:55:00,
2013-06-17 13:56:00,69.4,55.9,30.02,SW,225,0.0,6.9,62,0.00,,,0.00,WUHU21623XXSP,2013-06-17 20:56:00,
2013-06-17 13:57:00,69.4,55.9,30.02,SE,135,0.0,6.9,62,0.00,,,0.00,WUHU21623XXSP,2013-06-17 20:57:00,
2013-06-17 14:00:00,69.6,55.2,30.02,South,180,0.0,6.9,60,0.00,,,0.00,WUHU21623XXSP,2013-06-17 21:00:00,
2013-06-17 14:01:00,69.6,55.2,30.02,SSE,157,1.6,6.9,60,0.00,,,0.00,WUHU21623XXSP,2013-06-17 21:01:00,
2013-06-17 14:02:00,69.8,55.4,30.02,ESE,112,0.0,6.9,60,0.00,,,0.00,WUHU21623XXSP,2013-06-17 21:02:00,
2013-06-17 14:05:00,70.2,55.7,30.01,West,270,2.5,5.8,60,0.00,,,0.00,WUHU21623XXSP,2013-06-17 21:05:00,
2013-06-17 14:06:00,70.3,55.9,30.01,West,270,0.0,5.8,60,0.00,,,0.00,WUHU21623XXSP,2013-06-17 21:06:00,
2013-06-17 14:07:00,70.3,55.9,30.01,WSW,247,4.7,5.8,60,0.00,,,0.00,WUHU21623XXSP,2013-06-17 21:07:00,
2013-06-17 14:10:00,70.5,55.0,30.01,SE,135,5.1,5.8,58,0.00,,,0.00,WUHU21623XXSP,2013-06-17 21:10:00,
2013-06-17 14:11:00,70.7,55.2,30.01,SE,135,1.6,5.8,58,0.00,,,0.00,WUHU21623XXSP,2013-06-17 21:11:00,
2013-06-17 14:12:00,70.7,55.2,30.01,West,270,4.7,5.8,58,0.00,,,0.00,WUHU21623XXSP,2013-06-17 21:12:00,
2013-06-17 14:15:00,70.7,54.7,30.01,South,180,3.6,9.4,57,0.00,,,0.00,WUHU21623XXSP,2013-06-17 21:15:00,
2013-06-17 14:16:00,70.5,54.5,30.01,WSW,247,8.7,9.4,57,0.00,,,0.00,WUHU21623XXSP,2013-06-17 21:16:00,
2013-06-17 14:17:00,70.5,54.0,30.01,SE,135,0.0,9.4,56,0.00,,,0.00,WUHU21623XXSP,2013-06-17 21:17:00,
2013-06-17 14:18:00,70.3,53.9,30.01,SW,225,2.5,9.4,56,0.00,,,0.00,WUHU21623XXSP,2013-06-17 21:18:00,
2013-06-17 14:21:00,70.2,54.2,30.01,WSW,247,13.4,13.4,57,0.00,,,0.00,WUHU21623XXSP,2013-06-17 21:21:00,
2013-06-17 14:22:00,70.2,53.7,30.01,SSW,202,1.6,13.4,56,0.00,,,0.00,WUHU21623XXSP,2013-06-17 21:22:00,
2013-06-17 14:23:00,70.2,53.7,30.01,SE,135,1.8,13.4,56,0.00,,,0.00,WUHU21623XXSP,2013-06-17 21:23:00,
2013-06-17 14:26:00,70.0,53.5,30.01,SW,225,0.0,13.4,56,0.00,,,0.00,WUHU21623XXSP,2013-06-17 21:26:00,
2013-06-17 14:27:00,70.0,53.5,30.01,North,0,2.0,13.4,56,0.00,,,0.00,WUHU21623XXSP,2013-06-17 21:27:00,
2013-06-17 14:28:00,69.8,53.4,30.01,SSW,202,4.0,13.4,56,0.00,,,0.00,WUHU21623XXSP,2013-06-17 21:28:00,
2013-06-17 14:31:00,70.0,54.0,30.01,WSW,247,10.7,10.7,57,0.00,,,0.00,WUHU21623XXSP,2013-06-17 21:31:00,
2013-06-17 14:32:00,70.0,53.5,30.01,SSW,202,4.0,10.7,56,0.00,,,0.00,WUHU21623XXSP,2013-06-17 21:32:00,
2013-06-17 14:33:00,70.0,53.5,30.01,SW,225,6.7,10.7,56,0.00,,,0.00,WUHU21623XXSP,2013-06-17 21:33:00,
2013-06-17 14:36:00,69.6,53.2,30.01,SSW,202,0.0,18.6,56,0.00,,,0.00,WUHU21623XXSP,2013-06-17 21:36:00,
2013-06-17 14:37:00,69.6,53.2,30.01,SSW,202,10.1,18.6,56,0.00,,,0.00,WUHU21623XXSP,2013-06-17 21:37:00,
2013-06-17 14:38:00,69.6,53.2,30.01,SW,225,3.4,18.6,56,0.00,,,0.00,WUHU21623XXSP,2013-06-17 21:38:00,
2013-06-17 14:41:00,69.4,53.0,30.01,WSW,247,5.8,18.6,56,0.00,,,0.00,WUHU21623XXSP,2013-06-17 21:41:00,
2013-06-17 14:42:00,69.3,52.9,30.01,SSE,157,0.0,18.6,56,0.00,,,0.00,WUHU21623XXSP,2013-06-17 21:42:00,
2013-06-17 14:43:00,69.1,52.7,30.01,SW,225,0.0,18.6,56,0.00,,,0.00,WUHU21623XXSP,2013-06-17 21:43:00,
2013-06-17 14:46:00,69.1,52.7,30.01,West,270,3.8,10.7,56,0.00,,,0.00,WUHU21623XXSP,2013-06-17 21:46:00,
2013-06-17 14:47:00,68.7,52.3,30.01,WSW,247,5.4,10.7,56,0.00,,,0.00,WUHU21623XXSP,2013-06-17 21:47:00,
2013-06-17 14:48:00,68.7,52.3,30.01,South,180,6.3,10.7,56,0.00,,,0.00,WUHU21623XXSP,2013-06-17 21:48:00,
2013-06-17 14:51:00,68.5,52.7,30.01,SW,225,0.0,11.9,57,0.00,,,0.00,WUHU21623XXSP,2013-06-17 21:51:00,
2013-06-17 14:52:00,68.5,52.7,30.01,West,270,7.6,11.9,57,0.00,,,0.00,WUHU21623XXSP,2013-06-17 21:52:00,
2013-06-17 14:53:00,68.5,52.7,30.01,WSW,247,9.4,11.9,57,0.00,,,0.00,WUHU21623XXSP,2013-06-17 21:53:00,
2013-06-17 14:56:00,68.5,53.2,30.01,West,270,0.0,11.9,58,0.00,,,0.00,WUHU21623XXSP,2013-06-17 21:56:00,
2013-06-17 14:57:00,68.4,53.0,30.02,WSW,247,1.1,11.9,58,0.00,,,0.00,WUHU21623XXSP,2013-06-17 21:57:00,
2013-06-17 14:58:00,68.4,53.0,30.02,SSW,202,4.5,11.9,58,0.00,,,0.00,WUHU21623XXSP,2013-06-17 21:58:00,
2013-06-17 14:59:00,68.4,53.5,30.02,South,180,2.5,11.4,59,0.00,,,0.00,WUHU21623XXSP,2013-06-17 21:59:00,
2013-06-17 15:01:00,68.5,53.6,30.02,SSW,202,2.7,11.4,59,0.00,,,0.00,WUHU21623XXSP,2013-06-17 22:01:00,
2013-06-17 15:02:00,68.5,53.6,30.01,WSW,247,6.7,11.4,59,0.00,,,0.00,WUHU21623XXSP,2013-06-17 22:02:00,
2013-06-17 15:03:00,68.5,53.6,30.01,SE,135,2.7,11.4,59,0.00,,,0.00,WUHU21623XXSP,2013-06-17 22:03:00,
2013-06-17 15:04:00,68.5,53.6,30.02,South,180,3.8,11.4,59,0.00,,,0.00,WUHU21623XXSP,2013-06-17 22:04:00,
2013-06-17 15:07:00,68.7,53.8,30.02,WSW,247,2.5,11.4,59,0.00,,,0.00,WUHU21623XXSP,2013-06-17 22:07:00,
2013-06-17 15:08:00,68.7,53.8,30.02,WSW,247,8.9,11.4,59,0.00,,,0.00,WUHU21623XXSP,2013-06-17 22:08:00,
2013-06-17 15:09:00,68.7,53.8,30.02,West,270,5.8,11.4,59,0.00,,,0.00,WUHU21623XXSP,2013-06-17 22:09:00,
2013-06-17 15:12:00,68.2,53.3,30.02,SSE,157,1.6,10.3,59,0.00,,,0.00,WUHU21623XXSP,2013-06-17 22:12:00,
2013-06-17 15:13:00,68.2,53.3,30.02,South,180,0.0,10.3,59,0.00,,,0.00,WUHU21623XXSP,2013-06-17 22:13:00,
2013-06-17 15:14:00,68.0,53.1,30.02,WSW,247,0.0,10.3,59,0.00,,,0.00,WUHU21623XXSP,2013-06-17 22:14:00,
2013-06-17 15:15:00,67.8,53.4,30.02,SSE,157,1.8,10.3,60,0.00,,,0.00,WUHU21623XXSP,2013-06-17 22:15:00,
2013-06-17 15:18:00,67.6,53.3,30.02,SSW,202,1.6,10.3,60,0.00,,,0.00,WUHU21623XXSP,2013-06-17 22:18:00,
2013-06-17 15:19:00,67.6,53.7,30.02,South,180,6.0,6.5,61,0.00,,,0.00,WUHU21623XXSP,2013-06-17 22:19:00,
2013-06-17 15:20:00,67.6,53.7,30.02,WSW,247,0.0,6.5,61,0.00,,,0.00,WUHU21623XXSP,2013-06-17 22:20:00,
2013-06-17 15:23:00,66.9,53.0,30.02,SE,135,1.6,6.3,61,0.00,,,0.00,WUHU21623XXSP,2013-06-17 22:23:00,
2013-06-17 15:24:00,66.9,53.5,30.02,West,270,9.4,9.4,62,0.00,,,0.00,WUHU21623XXSP,2013-06-17 22:24:00,
2013-06-17 15:25:00,66.9,53.5,30.02,West,270,4.9,9.4,62,0.00,,,0.00,WUHU21623XXSP,2013-06-17 22:25:00,
2013-06-17 15:28:00,66.6,53.1,30.02,SW,225,3.1,9.4,62,0.00,,,0.00,WUHU21623XXSP,2013-06-17 22:28:00,
2013-06-17 15:29:00,66.4,53.0,30.02,SSE,157,0.0,13.0,62,0.00,,,0.00,WUHU21623XXSP,2013-06-17 22:29:00,
2013-06-17 15:30:00,66.4,53.0,30.02,South,180,0.0,13.0,62,0.00,,,0.00,WUHU21623XXSP,2013-06-17 22:30:00,
2013-06-17 15:33:00,66.0,53.0,30.02,WSW,247,3.6,13.0,63,0.00,,,0.00,WUHU21623XXSP,2013-06-17 22:33:00,
2013-06-17 15:34:00,66.0,53.0,30.02,WSW,247,5.6,13.0,63,0.00,,,0.00,WUHU21623XXSP,2013-06-17 22:34:00,
2013-06-17 15:35:00,66.0,53.0,30.01,South,180,0.0,13.0,63,0.00,,,0.00,WUHU21623XXSP,2013-06-17 22:35:00,
2013-06-17 15:39:00,65.5,52.9,30.02,WSW,247,8.9,8.9,64,0.00,,,0.00,WUHU21623XXSP,2013-06-17 22:39:00,
2013-06-17 15:40:00,65.5,52.9,30.01,South,180,2.2,8.9,64,0.00,,,0.00,WUHU21623XXSP,2013-06-17 22:40:00,
2013-06-17 15:41:00,65.3,52.8,30.01,West,270,3.1,8.9,64,0.00,,,0.00,WUHU21623XXSP,2013-06-17 22:41:00,
2013-06-17 15:44:00,65.1,53.0,30.01,SSW,202,7.8,8.9,65,0.00,,,0.00,WUHU21623XXSP,2013-06-17 22:44:00,
2013-06-17 15:45:00,65.1,53.0,30.01,WSW,247,3.1,8.9,65,0.00,,,0.00,WUHU21623XXSP,2013-06-17 22:45:00,
2013-06-17 15:46:00,65.1,53.0,30.01,SSW,202,2.5,8.9,65,0.00,,,0.00,WUHU21623XXSP,2013-06-17 22:46:00,
2013-06-17 15:49:00,64.9,53.3,30.01,SSE,157,0.0,13.6,66,0.00,,,0.00,WUHU21623XXSP,2013-06-17 22:49:00,
2013-06-17 15:50:00,64.9,53.3,30.01,SSW,202,4.7,13.6,66,0.00,,,0.00,WUHU21623XXSP,2013-06-17 22:50:00,
2013-06-17 15:51:00,64.9,53.3,30.01,WNW,292,2.2,15.2,66,0.00,,,0.00,WUHU21623XXSP,2013-06-17 22:51:00,
2013-06-17 15:54:00,64.8,53.1,30.01,South,180,0.4,15.2,66,0.00,,,0.00,WUHU21623XXSP,2013-06-17 22:54:00,
2013-06-17 15:55:00,64.8,53.1,30.01,East,90,0.7,15.2,66,0.00,,,0.00,WUHU21623XXSP,2013-06-17 22:55:00,
2013-06-17 15:56:00,64.6,52.9,30.01,SW,225,3.6,15.2,66,0.00,,,0.00,WUHU21623XXSP,2013-06-17 22:56:00,
2013-06-17 15:59:00,64.6,52.9,30.01,SW,225,2.0,15.2,66,0.00,,,0.00,WUHU21623XXSP,2013-06-17 22:59:00,
2013-06-17 16:00:00,64.4,52.8,30.01,NW,315,0.0,9.2,66,0.00,,,0.00,WUHU21623XXSP,2013-06-17 23:00:00,
2013-06-17 16:01:00,64.2,52.6,30.01,ESE,112,0.0,9.2,66,0.00,,,0.00,WUHU21623XXSP,2013-06-17 23:01:00,
2013-06-17 16:04:00,64.2,53.0,30.01,SSW,202,0.0,9.2,67,0.00,,,0.00,WUHU21623XXSP,2013-06-17 23:04:00,
2013-06-17 16:05:00,64.0,52.8,30.01,West,270,0.0,9.2,67,0.00,,,0.00,WUHU21623XXSP,2013-06-17 23:05:00,
2013-06-17 16:06:00,64.0,52.8,30.01,SSW,202,7.8,9.2,67,0.00,,,0.00,WUHU21623XXSP,2013-06-17 23:06:00,
2013-06-17 16:10:00,63.7,52.5,30.01,ESE,112,0.0,9.2,67,0.00,,,0.00,WUHU21623XXSP,2013-06-17 23:10:00,
2013-06-17 16:11:00,63.5,52.3,30.01,SE,135,0.0,9.2,67,0.00,,,0.00,WUHU21623XXSP,2013-06-17 23:11:00,
2013-06-17 16:12:00,63.3,52.1,30.01,SSE,157,0.0,9.2,67,0.00,,,0.00,WUHU21623XXSP,2013-06-17 23:12:00,
2013-06-17 16:15:00,63.1,52.4,30.01,SSE,157,1.3,9.2,68,0.00,,,0.00,WUHU21623XXSP,2013-06-17 23:15:00,
2013-06-17 16:16:00,63.1,52.4,30.01,WSW,247,6.3,9.2,68,0.00,,,0.00,WUHU21623XXSP,2013-06-17 23:16:00,
2013-06-17 16:17:00,63.0,52.2,30.01,South,180,2.0,8.1,68,0.00,,,0.00,WUHU21623XXSP,2013-06-17 23:17:00,
2013-06-17 16:20:00,62.8,52.0,30.01,South,180,0.0,6.5,68,0.00,,,0.00,WUHU21623XXSP,2013-06-17 23:20:00,
2013-06-17 16:21:00,62.6,52.3,30.01,WSW,247,4.7,8.5,69,0.00,,,0.00,WUHU21623XXSP,2013-06-17 23:21:00,
2013-06-17 16:22:00,62.4,52.1,30.01,West,270,2.9,8.5,69,0.00,,,0.00,WUHU21623XXSP,2013-06-17 23:22:00,
2013-06-17 16:23:00,62.4,52.1,30.01,SSW,202,0.0,8.5,69,0.00,,,0.00,WUHU21623XXSP,2013-06-17 23:23:00,
2013-06-17 16:25:00,62.1,51.8,30.01,SW,225,0.0,8.5,69,0.00,,,0.00,WUHU21623XXSP,2013-06-17 23:25:00,
2013-06-17 16:26:00,61.9,51.6,30.01,WSW,247,0.0,8.5,69,0.00,,,0.00,WUHU21623XXSP,2013-06-17 23:26:00,
2013-06-17 16:27:00,61.9,51.6,30.01,WSW,247,0.0,8.5,69,0.00,,,0.00,WUHU21623XXSP,2013-06-17 23:27:00,
2013-06-17 16:28:00,61.7,51.9,30.01,SSW,202,0.0,8.5,70,0.00,,,0.00,WUHU21623XXSP,2013-06-17 23:28:00,
2013-06-17 16:30:00,61.7,51.9,30.01,WSW,247,0.0,8.5,70,0.00,,,0.00,WUHU21623XXSP,2013-06-17 23:30:00,
2013-06-17 16:31:00,61.7,51.9,30.01,SW,225,3.8,7.4,70,0.00,,,0.00,WUHU21623XXSP,2013-06-17 23:31:00,
2013-06-17 16:32:00,61.5,51.7,30.01,WNW,292,5.1,5.6,70,0.00,,,0.00,WUHU21623XXSP,2013-06-17 23:32:00,
2013-06-17 16:34:00,61.5,52.1,30.01,SSW,202,0.0,6.5,71,0.00,,,0.00,WUHU21623XXSP,2013-06-17 23:34:00,
2013-06-17 16:36:00,61.3,51.9,30.01,NE,45,0.0,6.5,71,0.00,,,0.00,WUHU21623XXSP,2013-06-17 23:36:00,
2013-06-17 16:37:00,61.3,51.9,30.01,SSE,157,0.0,7.2,71,0.00,,,0.00,WUHU21623XXSP,2013-06-17 23:37:00,
2013-06-17 16:39:00,61.3,51.9,30.01,SSW,202,0.0,7.2,71,0.00,,,0.00,WUHU21623XXSP,2013-06-17 23:39:00,
2013-06-17 16:41:00,61.2,51.8,30.01,South,180,0.0,7.2,71,0.00,,,0.00,WUHU21623XXSP,2013-06-17 23:41:00,
2013-06-17 16:42:00,61.2,51.8,30.01,West,270,0.0,7.2,71,0.00,,,0.00,WUHU21623XXSP,2013-06-17 23:42:00,
2013-06-17 16:44:00,61.2,51.8,30.01,SSW,202,0.0,7.2,71,0.00,,,0.00,WUHU21623XXSP,2013-06-17 23:44:00,
2013-06-17 16:46:00,61.0,52.0,30.01,SW,225,5.8,7.2,72,0.00,,,0.00,WUHU21623XXSP,2013-06-17 23:46:00,
2013-06-17 16:48:00,61.0,52.0,30.01,SW,225,4.9,6.3,72,0.00,,,0.00,WUHU21623XXSP,2013-06-17 23:48:00,
2013-06-17 16:49:00,61.0,52.0,30.01,ESE,112,1.6,6.3,72,0.00,,,0.00,WUHU21623XXSP,2013-06-17 23:49:00,
2013-06-17 16:51:00,61.0,52.0,30.01,SSW,202,5.8,6.3,72,0.00,,,0.00,WUHU21623XXSP,2013-06-17 23:51:00,
2013-06-17 16:53:00,61.0,52.3,30.01,WSW,247,5.8,6.7,73,0.00,,,0.00,WUHU21623XXSP,2013-06-17 23:53:00,
2013-06-17 16:55:00,60.8,52.2,30.01,SSW,202,0.0,6.7,73,0.00,,,0.00,WUHU21623XXSP,2013-06-17 23:55:00,
2013-06-17 16:56:00,60.6,52.0,30.01,WSW,247,6.3,13.6,73,0.00,,,0.00,WUHU21623XXSP,2013-06-17 23:56:00,
2013-06-17 16:58:00,60.6,52.0,30.01,South,180,0.0,13.6,73,0.00,,,0.00,WUHU21623XXSP,2013-06-17 23:58:00,
2013-06-17 17:00:00,60.4,52.2,30.01,SW,225,2.5,13.6,74,0.00,,,0.00,WUHU21623XXSP,2013-06-18 00:00:00,
2013-06-17 17:01:00,60.1,51.8,30.01,SSW,202,0.0,13.6,74,0.00,,,0.00,WUHU21623XXSP,2013-06-18 00:01:00,
2013-06-17 17:03:00,60.1,52.2,30.01,ESE,112,0.7,13.6,75,0.00,,,0.00,WUHU21623XXSP,2013-06-18 00:03:00,
2013-06-17 17:04:00,60.1,52.2,30.01,SSE,157,0.0,13.6,75,0.00,,,0.00,WUHU21623XXSP,2013-06-18 00:04:00,
2013-06-17 17:05:00,59.9,52.0,30.01,SE,135,0.0,13.6,75,0.00,,,0.00,WUHU21623XXSP,2013-06-18 00:05:00,
2013-06-17 17:06:00,59.9,52.4,30.01,SW,229,3.3,6.9,76,0.00,,,0.00,WUHU21623XXSP,2013-06-18 00:06:00,
2013-06-17 17:08:00,59.7,51.8,30.01,West,270,0.0,3.3,75,0.00,,,0.00,WUHU21623XXSP,2013-06-18 00:08:00,
2013-06-17 17:09:00,59.7,51.8,30.01,West,270,0.0,3.3,75,0.00,,,0.00,WUHU21623XXSP,2013-06-18 00:09:00,
2013-06-17 17:10:00,59.7,52.2,30.01,SSE,157,0.0,3.3,76,0.00,,,0.00,WUHU21623XXSP,2013-06-18 00:10:00,
2013-06-17 17:11:00,59.5,52.0,30.01,SE,135,0.0,3.3,76,0.00,,,0.00,WUHU21623XXSP,2013-06-18 00:11:00,
2013-06-17 17:13:00,59.5,52.0,30.01,SSW,202,0.0,3.3,76,0.00,,,0.00,WUHU21623XXSP,2013-06-18 00:13:00,
2013-06-17 17:14:00,59.5,52.0,30.01,SSW,202,0.0,3.3,76,0.00,,,0.00,WUHU21623XXSP,2013-06-18 00:14:00,
2013-06-17 17:15:00,59.5,52.3,30.01,WSW,247,0.0,6.7,77,0.00,,,0.00,WUHU21623XXSP,2013-06-18 00:15:00,
2013-06-17 17:16:00,59.4,52.2,30.01,SW,225,0.0,6.7,77,0.00,,,0.00,WUHU21623XXSP,2013-06-18 00:16:00,
2013-06-17 17:18:00,59.4,52.2,30.01,South,180,2.9,6.7,77,0.00,,,0.00,WUHU21623XXSP,2013-06-18 00:18:00,
2013-06-17 17:19:00,59.2,52.0,30.01,SW,225,0.0,6.7,77,0.00,,,0.00,WUHU21623XXSP,2013-06-18 00:19:00,
2013-06-17 17:20:00,59.2,52.0,30.01,South,180,0.0,7.4,77,0.00,,,0.00,WUHU21623XXSP,2013-06-18 00:20:00,
2013-06-17 17:21:00,59.2,52.3,30.01,NW,315,0.0,7.4,78,0.00,,,0.00,WUHU21623XXSP,2013-06-18 00:21:00,
2013-06-17 17:23:00,58.8,52.0,30.01,South,180,0.0,7.4,78,0.00,,,0.00,WUHU21623XXSP,2013-06-18 00:23:00,
2013-06-17 17:24:00,58.8,52.0,30.01,SSW,202,1.1,7.4,78,0.00,,,0.00,WUHU21623XXSP,2013-06-18 00:24:00,
2013-06-17 17:25:00,58.8,52.0,30.01,East,90,0.0,7.4,78,0.00,,,0.00,WUHU21623XXSP,2013-06-18 00:25:00,
2013-06-17 17:27:00,58.8,52.0,30.01,West,270,4.0,7.4,78,0.00,,,0.00,WUHU21623XXSP,2013-06-18 00:27:00,
2013-06-17 17:28:00,58.8,52.3,30.01,West,270,0.0,10.1,79,0.00,,,0.00,WUHU21623XXSP,2013-06-18 00:28:00,
2013-06-17 17:29:00,58.8,52.3,30.01,SW,225,0.0,10.1,79,0.00,,,0.00,WUHU21623XXSP,2013-06-18 00:29:00,
2013-06-17 17:30:00,58.8,52.3,30.01,WSW,247,2.9,10.1,79,0.00,,,0.00,WUHU21623XXSP,2013-06-18 00:30:00,
2013-06-17 17:32:00,58.8,52.3,30.01,SSE,157,0.0,10.1,79,0.00,,,0.00,WUHU21623XXSP,2013-06-18 00:32:00,
2013-06-17 17:33:00,58.8,52.3,30.01,SSE,157,3.4,10.1,79,0.00,,,0.00,WUHU21623XXSP,2013-06-18 00:33:00,
2013-06-17 17:34:00,58.8,52.3,30.01,SSE,157,0.0,10.1,79,0.00,,,0.00,WUHU21623XXSP,2013-06-18 00:34:00,
2013-06-17 17:35:00,58.8,52.3,30.01,SSW,202,0.0,10.1,79,0.00,,,0.00,WUHU21623XXSP,2013-06-18 00:35:00,
2013-06-17 17:37:00,58.8,52.7,30.01,North,0,0.0,10.1,80,0.00,,,0.00,WUHU21623XXSP,2013-06-18 00:37:00,
2013-06-17 17:38:00,58.8,52.7,30.01,ESE,112,4.3,4.3,80,0.00,,,0.00,WUHU21623XXSP,2013-06-18 00:38:00,
2013-06-17 17:39:00,58.8,52.3,30.01,West,270,0.0,9.2,79,0.00,,,0.00,WUHU21623XXSP,2013-06-18 00:39:00,
2013-06-17 17:41:00,58.8,52.3,30.01,WSW,247,0.0,9.2,79,0.00,,,0.00,WUHU21623XXSP,2013-06-18 00:41:00,
2013-06-17 17:42:00,58.8,52.3,30.01,WSW,247,0.0,9.2,79,0.00,,,0.00,WUHU21623XXSP,2013-06-18 00:42:00,
2013-06-17 17:43:00,58.8,52.7,30.01,SSE,157,1.8,9.2,80,0.00,,,0.00,WUHU21623XXSP,2013-06-18 00:43:00,
2013-06-17 17:44:00,58.6,52.5,30.01,South,180,0.0,9.2,80,0.00,,,0.00,WUHU21623XXSP,2013-06-18 00:44:00,
2013-06-17 17:46:00,58.6,52.5,30.01,SSW,202,0.0,9.2,80,0.00,,,0.00,WUHU21623XXSP,2013-06-18 00:46:00,
2013-06-17 17:48:00,58.6,52.5,30.00,WSW,247,8.3,9.2,80,0.00,,,0.00,WUHU21623XXSP,2013-06-18 00:48:00,
2013-06-17 17:50:00,58.5,52.3,30.01,WNW,292,0.0,8.3,80,0.00,,,0.00,WUHU21623XXSP,2013-06-18 00:50:00,
2013-06-17 17:51:00,58.6,52.5,30.01,South,180,0.0,8.3,80,0.00,,,0.00,WUHU21623XXSP,2013-06-18 00:51:00,
2013-06-17 17:53:00,58.5,52.3,30.01,South,180,1.6,8.3,80,0.00,,,0.00,WUHU21623XXSP,2013-06-18 00:53:00,
2013-06-17 17:55:00,58.5,52.7,30.01,SSE,157,4.0,8.3,81,0.00,,,0.00,WUHU21623XXSP,2013-06-18 00:55:00,
2013-06-17 17:56:00,58.6,52.8,30.01,SW,225,0.0,8.3,81,0.00,,,0.00,WUHU21623XXSP,2013-06-18 00:56:00,
2013-06-17 17:58:00,58.6,52.8,30.01,SE,135,0.0,7.6,81,0.00,,,0.00,WUHU21623XXSP,2013-06-18 00:58:00,
2013-06-17 17:59:00,58.6,52.8,30.01,South,180,0.0,7.6,81,0.00,,,0.00,WUHU21623XXSP,2013-06-18 00:59:00,
2013-06-17 18:00:00,58.6,52.8,30.00,SW,225,0.0,7.6,81,0.00,,,0.00,WUHU21623XXSP,2013-06-18 01:00:00,
2013-06-17 18:01:00,58.6,52.8,30.01,South,180,0.0,7.6,81,0.00,,,0.00,WUHU21623XXSP,2013-06-18 01:01:00,
2013-06-17 18:02:00,58.6,52.8,30.01,WSW,247,0.0,7.6,81,0.00,,,0.00,WUHU21623XXSP,2013-06-18 01:02:00,
2013-06-17 18:03:00,58.6,52.8,30.01,SSW,202,0.0,4.0,81,0.00,,,0.00,WUHU21623XXSP,2013-06-18 01:03:00,
2013-06-17 18:04:00,58.6,52.8,30.01,SSE,157,2.0,4.0,81,0.00,,,0.00,WUHU21623XXSP,2013-06-18 01:04:00,
2013-06-17 18:05:00,58.6,52.8,30.01,SSE,157,1.1,2.2,81,0.00,,,0.00,WUHU21623XXSP,2013-06-18 01:05:00,
2013-06-17 18:06:00,58.6,52.8,30.01,SW,225,0.0,2.2,81,0.00,,,0.00,WUHU21623XXSP,2013-06-18 01:06:00,
2013-06-17 18:07:00,58.6,52.8,30.00,SSE,157,0.0,2.5,81,0.00,,,0.00,WUHU21623XXSP,2013-06-18 01:07:00,
2013-06-17 18:08:00,58.6,52.8,30.00,West,270,0.0,6.7,81,0.00,,,0.00,WUHU21623XXSP,2013-06-18 01:08:00,
2013-06-17 18:09:00,58.6,52.8,30.01,ENE,67,1.6,6.7,81,0.00,,,0.00,WUHU21623XXSP,2013-06-18 01:09:00,
2013-06-17 18:10:00,58.6,52.8,30.00,SE,135,0.0,6.7,81,0.00,,,0.00,WUHU21623XXSP,2013-06-18 01:10:00,
2013-06-17 18:11:00,58.6,52.8,30.00,ESE,112,0.0,6.7,81,0.00,,,0.00,WUHU21623XXSP,2013-06-18 01:11:00,
2013-06-17 18:12:00,58.6,52.8,30.00,SSE,157,0.0,6.7,81,0.00,,,0.00,WUHU21623XXSP,2013-06-18 01:12:00,
2013-06-17 18:13:00,58.6,52.8,30.01,West,270,1.3,6.7,81,0.00,,,0.00,WUHU21623XXSP,2013-06-18 01:13:00,
2013-06-17 18:15:00,58.6,52.8,30.01,South,180,2.5,6.7,81,0.00,,,0.00,WUHU21623XXSP,2013-06-18 01:15:00,
2013-06-17 18:16:00,58.6,53.2,30.00,SSE,157,2.9,6.7,82,0.00,,,0.00,WUHU21623XXSP,2013-06-18 01:16:00,
2013-06-17 18:17:00,58.6,53.2,30.00,South,180,1.3,6.7,82,0.00,,,0.00,WUHU21623XXSP,2013-06-18 01:17:00,
2013-06-17 18:18:00,58.6,53.2,30.00,SSW,202,0.0,5.1,82,0.00,,,0.00,WUHU21623XXSP,2013-06-18 01:18:00,
2013-06-17 18:20:00,58.6,53.2,30.00,SE,135,0.0,5.1,82,0.00,,,0.00,WUHU21623XXSP,2013-06-18 01:20:00,
2013-06-17 18:21:00,58.6,53.2,30.00,SSE,157,2.5,5.1,82,0.00,,,0.00,WUHU21623XXSP,2013-06-18 01:21:00,
2013-06-17 18:22:00,58.6,53.2,30.00,SSE,157,1.6,5.1,82,0.00,,,0.00,WUHU21623XXSP,2013-06-18 01:22:00,
2013-06-17 18:23:00,58.6,53.2,30.00,SSW,202,0.0,5.1,82,0.00,,,0.00,WUHU21623XXSP,2013-06-18 01:23:00,
2013-06-17 18:25:00,58.6,53.2,30.00,SSW,202,0.0,5.1,82,0.00,,,0.00,WUHU21623XXSP,2013-06-18 01:25:00,
2013-06-17 18:26:00,58.6,53.2,30.00,WSW,247,1.3,10.1,82,0.00,,,0.00,WUHU21623XXSP,2013-06-18 01:26:00,
2013-06-17 18:27:00,58.6,53.2,30.00,West,270,0.0,10.1,82,0.00,,,0.00,WUHU21623XXSP,2013-06-18 01:27:00,
2013-06-17 18:28:00,58.6,53.2,30.00,NNW,337,6.9,10.1,82,0.00,,,0.00,WUHU21623XXSP,2013-06-18 01:28:00,
2013-06-17 18:30:00,58.5,53.0,30.00,SSE,157,0.0,10.1,82,0.00,,,0.00,WUHU21623XXSP,2013-06-18 01:30:00,
2013-06-17 18:31:00,58.5,53.0,30.00,SSE,157,0.0,10.1,82,0.00,,,0.00,WUHU21623XXSP,2013-06-18 01:31:00,
2013-06-17 18:32:00,58.3,52.8,30.00,SE,135,0.0,10.1,82,0.00,,,0.00,WUHU21623XXSP,2013-06-18 01:32:00,
2013-06-17 18:34:00,58.3,52.8,30.00,ESE,112,0.0,10.1,82,0.00,,,0.00,WUHU21623XXSP,2013-06-18 01:34:00,
2013-06-17 18:36:00,58.3,52.8,30.00,SW,225,0.0,7.2,82,0.00,,,0.00,WUHU21623XXSP,2013-06-18 01:36:00,
2013-06-17 18:38:00,58.3,52.8,30.00,SSE,157,0.0,7.2,82,0.00,,,0.00,WUHU21623XXSP,2013-06-18 01:38:00,
2013-06-17 18:39:00,58.3,52.8,30.00,SSE,157,0.0,3.4,82,0.00,,,0.00,WUHU21623XXSP,2013-06-18 01:39:00,
2013-06-17 18:41:00,58.3,53.1,30.00,SSW,202,0.0,2.9,83,0.00,,,0.00,WUHU21623XXSP,2013-06-18 01:41:00,
2013-06-17 18:42:00,58.3,53.1,30.00,SSW,202,1.1,2.9,83,0.00,,,0.00,WUHU21623XXSP,2013-06-18 01:42:00,
2013-06-17 18:43:00,58.3,53.1,30.00,South,180,0.0,3.8,83,0.00,,,0.00,WUHU21623XXSP,2013-06-18 01:43:00,
2013-06-17 18:44:00,58.3,53.1,30.00,SSW,202,0.0,3.8,83,0.00,,,0.00,WUHU21623XXSP,2013-06-18 01:44:00,
2013-06-17 18:46:00,58.3,53.1,30.00,SE,135,0.0,7.6,83,0.00,,,0.00,WUHU21623XXSP,2013-06-18 01:46:00,
2013-06-17 18:47:00,58.3,53.1,30.00,SE,135,0.0,7.6,83,0.00,,,0.00,WUHU21623XXSP,2013-06-18 01:47:00,
2013-06-17 18:48:00,58.3,53.1,30.00,SSE,157,0.0,7.6,83,0.00,,,0.00,WUHU21623XXSP,2013-06-18 01:48:00,
2013-06-17 18:50:00,58.1,53.0,30.00,SE,135,0.0,7.6,83,0.00,,,0.00,WUHU21623XXSP,2013-06-18 01:50:00,
2013-06-17 18:51:00,58.1,53.0,30.00,WSW,247,0.0,7.6,83,0.00,,,0.00,WUHU21623XXSP,2013-06-18 01:51:00,
2013-06-17 18:52:00,58.1,53.0,30.00,South,180,3.8,7.6,83,0.00,,,0.00,WUHU21623XXSP,2013-06-18 01:52:00,
2013-06-17 18:54:00,58.1,53.0,30.00,SE,135,2.9,7.6,83,0.00,,,0.00,WUHU21623XXSP,2013-06-18 01:54:00,
2013-06-17 18:55:00,58.1,53.0,30.00,SSW,202,0.0,7.6,83,0.00,,,0.00,WUHU21623XXSP,2013-06-18 01:55:00,
2013-06-17 18:56:00,58.1,53.0,30.00,SSE,157,0.0,3.8,83,0.00,,,0.00,WUHU21623XXSP,2013-06-18 01:56:00,
2013-06-17 18:57:00,58.1,53.0,30.00,SE,135,0.0,3.8,83,0.00,,,0.00,WUHU21623XXSP,2013-06-18 01:57:00,
2013-06-17 18:59:00,58.1,53.0,30.01,SE,135,3.1,3.8,83,0.00,,,0.00,WUHU21623XXSP,2013-06-18 01:59:00,
2013-06-17 19:00:00,58.1,53.0,30.01,South,180,0.0,3.8,83,0.00,,,0.00,WUHU21623XXSP,2013-06-18 02:00:00,
2013-06-17 19:01:00,58.1,53.0,30.01,SSW,202,0.0,3.8,83,0.00,,,0.00,WUHU21623XXSP,2013-06-18 02:01:00,
2013-06-17 19:02:00,58.1,53.0,30.01,SSW,202,0.0,3.1,83,0.00,,,0.00,WUHU21623XXSP,2013-06-18 02:02:00,
2013-06-17 19:04:00,58.1,53.0,30.01,SSW,202,0.0,3.6,83,0.00,,,0.00,WUHU21623XXSP,2013-06-18 02:04:00,
2013-06-17 19:05:00,58.1,53.0,30.01,South,180,0.0,3.6,83,0.00,,,0.00,WUHU21623XXSP,2013-06-18 02:05:00,
2013-06-17 19:06:00,58.1,53.0,30.01,South,180,0.0,10.3,83,0.00,,,0.00,WUHU21623XXSP,2013-06-18 02:06:00,
2013-06-17 19:07:00,58.1,53.0,30.01,SSE,157,0.0,10.3,83,0.00,,,0.00,WUHU21623XXSP,2013-06-18 02:07:00,
2013-06-17 19:09:00,57.9,52.8,30.00,SSE,157,0.0,10.3,83,0.00,,,0.00,WUHU21623XXSP,2013-06-18 02:09:00,
2013-06-17 19:10:00,57.9,52.8,30.01,SSW,202,0.9,10.3,83,0.00,,,0.00,WUHU21623XXSP,2013-06-18 02:10:00,
2013-06-17 19:11:00,57.9,52.8,30.01,ESE,112,0.0,10.3,83,0.00,,,0.00,WUHU21623XXSP,2013-06-18 02:11:00,
2013-06-17 19:12:00,57.9,52.8,30.01,South,180,0.0,10.3,83,0.00,,,0.00,WUHU21623XXSP,2013-06-18 02:12:00,
2013-06-17 19:15:00,57.9,52.8,30.00,NE,45,2.0,10.3,83,0.00,,,0.00,WUHU21623XXSP,2013-06-18 02:15:00,
2013-06-17 19:16:00,57.9,52.8,30.01,WSW,247,0.0,6.5,83,0.00,,,0.00,WUHU21623XXSP,2013-06-18 02:16:00,
2013-06-17 19:17:00,57.9,52.8,30.00,SSE,157,0.0,6.5,83,0.00,,,0.00,WUHU21623XXSP,2013-06-18 02:17:00,
2013-06-17 19:20:00,57.7,52.6,30.00,South,180,3.6,7.4,83,0.00,,,0.00,WUHU21623XXSP,2013-06-18 02:20:00,
2013-06-17 19:21:00,57.7,52.6,30.00,South,180,0.0,7.4,83,0.00,,,0.00,WUHU21623XXSP,2013-06-18 02:21:00,
2013-06-17 19:22:00,57.7,52.6,30.00,SE,135,0.0,7.4,83,0.00,,,0.00,WUHU21623XXSP,2013-06-18 02:22:00,
2013-06-17 19:23:00,57.7,52.6,30.00,SSE,157,0.0,7.4,83,0.00,,,0.00,WUHU21623XXSP,2013-06-18 02:23:00,
2013-06-17 19:25:00,57.7,52.6,30.00,East,90,0.0,11.4,83,0.00,,,0.00,WUHU21623XXSP,2013-06-18 02:25:00,
2013-06-17 19:26:00,57.7,52.6,30.00,NNE,22,0.0,11.4,83,0.00,,,0.00,WUHU21623XXSP,2013-06-18 02:26:00,
2013-06-17 19:28:00,57.7,52.6,30.00,ESE,112,2.9,11.4,83,0.00,,,0.00,WUHU21623XXSP,2013-06-18 02:28:00,
2013-06-17 19:31:00,57.7,52.9,30.00,South,180,4.7,11.4,84,0.00,,,0.00,WUHU21623XXSP,2013-06-18 02:31:00,
2013-06-17 19:32:00,57.6,52.7,30.00,ENE,67,0.0,11.4,84,0.00,,,0.00,WUHU21623XXSP,2013-06-18 02:32:00,
2013-06-17 19:33:00,57.6,52.7,30.00,SE,135,0.0,11.4,84,0.00,,,0.00,WUHU21623XXSP,2013-06-18 02:33:00,
2013-06-17 19:36:00,57.6,52.7,30.00,WNW,292,2.7,4.7,84,0.00,,,0.00,WUHU21623XXSP,2013-06-18 02:36:00,
2013-06-17 19:37:00,57.6,52.7,30.00,SSE,157,0.0,4.7,84,0.00,,,0.00,WUHU21623XXSP,2013-06-18 02:37:00,
2013-06-17 19:38:00,57.6,52.7,30.00,SSW,202,0.0,4.7,84,0.00,,,0.00,WUHU21623XXSP,2013-06-18 02:38:00,
2013-06-17 19:41:00,57.6,52.7,30.00,SW,225,0.0,3.8,84,0.00,,,0.00,WUHU21623XXSP,2013-06-18 02:41:00,
2013-06-17 19:43:00,57.6,52.7,30.00,ESE,112,0.0,3.8,84,0.00,,,0.00,WUHU21623XXSP,2013-06-18 02:43:00,
2013-06-17 19:46:00,57.6,52.7,30.00,WSW,247,2.2,2.9,84,0.00,,,0.00,WUHU21623XXSP,2013-06-18 02:46:00,
2013-06-17 19:48:00,57.6,52.7,30.00,SW,225,0.0,4.9,84,0.00,,,0.00,WUHU21623XXSP,2013-06-18 02:48:00,
2013-06-17 19:51:00,57.4,52.6,30.00,SW,225,0.0,4.9,84,0.00,,,0.00,WUHU21623XXSP,2013-06-18 02:51:00,
2013-06-17 19:53:00,57.4,52.6,30.00,SSW,202,0.0,4.9,84,0.00,,,0.00,WUHU21623XXSP,2013-06-18 02:53:00,
2013-06-17 19:54:00,57.4,52.6,30.00,SE,135,6.3,6.3,84,0.00,,,0.00,WUHU21623XXSP,2013-06-18 02:54:00,
2013-06-17 19:56:00,57.4,52.6,30.00,SSE,157,0.0,6.3,84,0.00,,,0.00,WUHU21623XXSP,2013-06-18 02:56:00,
2013-06-17 19:58:00,57.4,52.6,30.00,ESE,112,0.0,6.3,84,0.00,,,0.00,WUHU21623XXSP,2013-06-18 02:58:00,
2013-06-17 19:59:00,57.4,52.6,30.00,SE,135,0.0,6.3,84,0.00,,,0.00,WUHU21623XXSP,2013-06-18 02:59:00,
2013-06-17 20:01:00,57.4,52.6,30.00,South,180,0.0,6.3,84,0.00,,,0.00,WUHU21623XXSP,2013-06-18 03:01:00,
2013-06-17 20:02:00,57.4,52.6,30.00,South,180,0.0,6.3,84,0.00,,,0.00,WUHU21623XXSP,2013-06-18 03:02:00,
2013-06-17 20:04:00,57.4,52.6,30.00,ESE,112,0.0,5.6,84,0.00,,,0.00,WUHU21623XXSP,2013-06-18 03:04:00,
2013-06-17 20:06:00,57.4,52.6,30.00,NNW,337,0.0,2.5,84,0.00,,,0.00,WUHU21623XXSP,2013-06-18 03:06:00,
2013-06-17 20:07:00,57.4,52.6,30.00,SE,135,4.9,4.9,84,0.00,,,0.00,WUHU21623XXSP,2013-06-18 03:07:00,
2013-06-17 20:09:00,57.4,52.6,30.00,South,180,0.0,4.9,84,0.00,,,0.00,WUHU21623XXSP,2013-06-18 03:09:00,
2013-06-17 20:12:00,57.4,52.6,30.00,West,270,3.4,4.9,84,0.00,,,0.00,WUHU21623XXSP,2013-06-18 03:12:00,
2013-06-17 20:13:00,57.4,52.6,30.00,NNE,22,0.0,4.9,84,0.00,,,0.00,WUHU21623XXSP,2013-06-18 03:13:00,
2013-06-17 20:14:00,57.4,52.6,30.00,South,180,0.0,4.9,84,0.00,,,0.00,WUHU21623XXSP,2013-06-18 03:14:00,
2013-06-17 20:17:00,57.2,52.4,30.00,SE,135,0.0,4.9,84,0.00,,,0.00,WUHU21623XXSP,2013-06-18 03:17:00,
2013-06-17 20:18:00,57.2,52.4,30.00,SE,135,0.0,3.6,84,0.00,,,0.00,WUHU21623XXSP,2013-06-18 03:18:00,
2013-06-17 20:19:00,57.2,52.4,30.00,ESE,112,6.9,6.9,84,0.00,,,0.00,WUHU21623XXSP,2013-06-18 03:19:00,
2013-06-17 20:20:00,57.2,52.4,30.00,SSE,157,1.1,6.9,84,0.00,,,0.00,WUHU21623XXSP,2013-06-18 03:20:00,
2013-06-17 20:22:00,57.0,52.2,30.00,South,180,2.2,6.9,84,0.00,,,0.00,WUHU21623XXSP,2013-06-18 03:22:00,
2013-06-17 20:23:00,57.0,52.2,30.00,SE,135,0.0,6.9,84,0.00,,,0.00,WUHU21623XXSP,2013-06-18 03:23:00,
2013-06-17 20:24:00,57.0,52.2,30.00,SW,225,0.0,6.9,84,0.00,,,0.00,WUHU21623XXSP,2013-06-18 03:24:00,
2013-06-17 20:25:00,57.0,52.2,30.00,South,180,0.0,6.9,84,0.00,,,0.00,WUHU21623XXSP,2013-06-18 03:25:00,
2013-06-17 20:27:00,57.0,52.2,30.00,WSW,247,0.0,6.9,84,0.00,,,0.00,WUHU21623XXSP,2013-06-18 03:27:00,
2013-06-17 20:28:00,57.0,52.2,30.00,SE,135,0.9,6.9,84,0.00,,,0.00,WUHU21623XXSP,2013-06-18 03:28:00,
2013-06-17 20:29:00,57.0,52.2,30.00,SE,135,1.1,6.5,84,0.00,,,0.00,WUHU21623XXSP,2013-06-18 03:29:00,
2013-06-17 20:30:00,57.0,52.5,30.00,SSE,157,0.0,6.5,85,0.00,,,0.00,WUHU21623XXSP,2013-06-18 03:30:00,
2013-06-17 20:33:00,57.0,52.5,30.00,ESE,112,0.0,6.5,85,0.00,,,0.00,WUHU21623XXSP,2013-06-18 03:33:00,
2013-06-17 20:35:00,57.0,52.5,30.00,South,180,1.3,6.5,85,0.00,,,0.00,WUHU21623XXSP,2013-06-18 03:35:00,
2013-06-17 20:36:00,57.0,52.5,30.00,South,180,0.0,4.5,85,0.00,,,0.00,WUHU21623XXSP,2013-06-18 03:36:00,
2013-06-17 20:38:00,57.0,52.5,30.00,SSE,157,0.0,4.5,85,0.00,,,0.00,WUHU21623XXSP,2013-06-18 03:38:00,
2013-06-17 20:40:00,57.0,52.5,30.00,SSE,157,1.3,4.5,85,0.00,,,0.00,WUHU21623XXSP,2013-06-18 03:40:00,
2013-06-17 20:41:00,57.0,52.5,30.00,East,90,0.0,4.5,85,0.00,,,0.00,WUHU21623XXSP,2013-06-18 03:41:00,
2013-06-17 20:43:00,57.0,52.5,30.00,SSW,202,0.0,4.5,85,0.00,,,0.00,WUHU21623XXSP,2013-06-18 03:43:00,
2013-06-17 20:45:00,56.8,52.3,30.00,SE,135,1.8,3.8,85,0.00,,,0.00,WUHU21623XXSP,2013-06-18 03:45:00,
2013-06-17 20:46:00,56.8,52.3,30.00,SSW,202,0.0,3.8,85,0.00,,,0.00,WUHU21623XXSP,2013-06-18 03:46:00,
2013-06-17 20:48:00,56.8,52.3,30.00,South,180,0.0,2.5,85,0.00,,,0.00,WUHU21623XXSP,2013-06-18 03:48:00,
2013-06-17 20:50:00,56.8,52.3,30.00,SSE,157,0.0,2.5,85,0.00,,,0.00,WUHU21623XXSP,2013-06-18 03:50:00,
2013-06-17 20:51:00,56.8,52.3,30.00,West,270,0.0,2.5,85,0.00,,,0.00,WUHU21623XXSP,2013-06-18 03:51:00,
2013-06-17 20:53:00,56.8,52.3,30.00,SE,135,0.0,2.5,85,0.00,,,0.00,WUHU21623XXSP,2013-06-18 03:53:00,
2013-06-17 20:55:00,56.8,52.3,30.00,SSE,157,0.0,2.5,85,0.00,,,0.00,WUHU21623XXSP,2013-06-18 03:55:00,
2013-06-17 20:56:00,57.0,52.5,30.00,NNW,337,0.0,2.5,85,0.00,,,0.00,WUHU21623XXSP,2013-06-18 03:56:00,
2013-06-17 20:58:00,56.8,52.3,30.00,SW,225,0.0,2.5,85,0.00,,,0.00,WUHU21623XXSP,2013-06-18 03:58:00,
2013-06-17 21:00:00,56.8,52.3,29.99,SW,225,0.0,1.8,85,0.00,,,0.00,WUHU21623XXSP,2013-06-18 04:00:00,
2013-06-17 21:01:00,56.8,52.3,29.99,SW,225,0.0,1.8,85,0.00,,,0.00,WUHU21623XXSP,2013-06-18 04:01:00,
2013-06-17 21:06:00,56.8,52.3,29.99,WSW,247,2.7,2.7,85,0.00,,,0.00,WUHU21623XXSP,2013-06-18 04:06:00,
2013-06-17 21:11:00,56.8,52.3,30.00,ESE,112,0.0,3.1,85,0.00,,,0.00,WUHU21623XXSP,2013-06-18 04:11:00,
2013-06-17 21:16:00,56.8,52.3,30.00,SSW,202,0.0,3.1,85,0.00,,,0.00,WUHU21623XXSP,2013-06-18 04:16:00,
2013-06-17 21:17:00,56.8,52.3,30.00,SW,225,0.0,3.1,85,0.00,,,0.00,WUHU21623XXSP,2013-06-18 04:17:00,
2013-06-17 21:21:00,56.8,52.3,30.00,West,270,0.0,1.1,85,0.00,,,0.00,WUHU21623XXSP,2013-06-18 04:21:00,
2013-06-17 21:22:00,56.8,52.3,30.00,SSW,202,1.8,1.8,85,0.00,,,0.00,WUHU21623XXSP,2013-06-18 04:22:00,
2013-06-17 21:26:00,56.8,52.3,30.00,SE,135,0.0,3.1,85,0.00,,,0.00,WUHU21623XXSP,2013-06-18 04:26:00,
2013-06-17 21:27:00,56.8,52.3,30.00,SSE,157,1.8,3.1,85,0.00,,,0.00,WUHU21623XXSP,2013-06-18 04:27:00,
2013-06-17 21:28:00,56.8,52.3,30.00,South,180,0.0,3.1,85,0.00,,,0.00,WUHU21623XXSP,2013-06-18 04:28:00,
2013-06-17 21:32:00,56.8,52.3,30.00,SE,135,0.0,14.1,85,0.00,,,0.00,WUHU21623XXSP,2013-06-18 04:32:00,
2013-06-17 21:33:00,56.8,52.3,30.00,SW,225,0.0,14.1,85,0.00,,,0.00,WUHU21623XXSP,2013-06-18 04:33:00,
2013-06-17 21:37:00,56.8,52.7,30.00,SE,135,0.9,14.1,86,0.00,,,0.00,WUHU21623XXSP,2013-06-18 04:37:00,
2013-06-17 21:38:00,56.7,52.2,30.00,SW,225,0.0,14.1,85,0.00,,,0.00,WUHU21623XXSP,2013-06-18 04:38:00,
2013-06-17 21:42:00,56.5,52.3,30.00,SW,225,3.6,6.0,86,0.00,,,0.00,WUHU21623XXSP,2013-06-18 04:42:00,
2013-06-17 21:43:00,56.7,52.5,30.00,SE,135,0.0,6.0,86,0.00,,,0.00,WUHU21623XXSP,2013-06-18 04:43:00,
2013-06-17 21:44:00,56.5,52.3,30.00,NE,45,0.0,6.0,86,0.00,,,0.00,WUHU21623XXSP,2013-06-18 04:44:00,
2013-06-17 21:47:00,56.5,52.3,30.00,WSW,247,0.0,6.0,86,0.00,,,0.00,WUHU21623XXSP,2013-06-18 04:47:00,
2013-06-17 21:48:00,56.5,52.3,30.00,SSE,157,0.0,6.0,86,0.00,,,0.00,WUHU21623XXSP,2013-06-18 04:48:00,
2013-06-17 21:52:00,56.5,52.3,30.00,WSW,247,1.3,4.0,86,0.00,,,0.00,WUHU21623XXSP,2013-06-18 04:52:00,
2013-06-17 21:53:00,56.5,52.3,30.00,WSW,247,0.0,4.0,86,0.00,,,0.00,WUHU21623XXSP,2013-06-18 04:53:00,
2013-06-17 21:54:00,56.5,52.3,30.00,SSE,157,0.0,4.0,86,0.00,,,0.00,WUHU21623XXSP,2013-06-18 04:54:00,
2013-06-17 21:57:00,56.5,52.3,30.00,West,270,2.0,4.0,86,0.00,,,0.00,WUHU21623XXSP,2013-06-18 04:57:00,
2013-06-17 21:58:00,56.5,52.3,30.00,WNW,292,0.0,4.0,86,0.00,,,0.00,WUHU21623XXSP,2013-06-18 04:58:00,
2013-06-17 21:59:00,56.5,52.3,30.00,South,180,0.7,4.0,86,0.00,,,0.00,WUHU21623XXSP,2013-06-18 04:59:00,
2013-06-17 22:02:00,56.5,52.3,30.00,SSE,157,0.0,5.1,86,0.00,,,0.00,WUHU21623XXSP,2013-06-18 05:02:00,
2013-06-17 22:03:00,56.5,52.3,30.00,South,180,2.0,5.1,86,0.00,,,0.00,WUHU21623XXSP,2013-06-18 05:03:00,
2013-06-17 22:04:00,56.5,52.3,30.01,NE,45,2.2,5.1,86,0.00,,,0.00,WUHU21623XXSP,2013-06-18 05:04:00,
2013-06-17 22:07:00,56.5,52.3,30.01,SE,135,0.0,5.1,86,0.00,,,0.00,WUHU21623XXSP,2013-06-18 05:07:00,
2013-06-17 22:08:00,56.5,52.3,30.01,SE,135,0.0,5.1,86,0.00,,,0.00,WUHU21623XXSP,2013-06-18 05:08:00,
2013-06-17 22:09:00,56.5,52.3,30.01,SSW,202,0.0,5.1,86,0.00,,,0.00,WUHU21623XXSP,2013-06-18 05:09:00,
2013-06-17 22:12:00,56.3,52.1,30.01,WSW,247,0.0,3.8,86,0.00,,,0.00,WUHU21623XXSP,2013-06-18 05:12:00,
2013-06-17 22:13:00,56.3,52.1,30.01,SE,135,0.0,3.8,86,0.00,,,0.00,WUHU21623XXSP,2013-06-18 05:13:00,
2013-06-17 22:14:00,56.3,52.1,30.01,SSE,157,0.0,3.8,86,0.00,,,0.00,WUHU21623XXSP,2013-06-18 05:14:00,
2013-06-17 22:17:00,56.3,52.1,30.01,WSW,247,0.0,3.8,86,0.00,,,0.00,WUHU21623XXSP,2013-06-18 05:17:00,
2013-06-17 22:18:00,56.3,52.1,30.01,WNW,292,0.0,3.8,86,0.00,,,0.00,WUHU21623XXSP,2013-06-18 05:18:00,
2013-06-17 22:19:00,56.3,52.1,30.01,South,180,0.0,3.8,86,0.00,,,0.00,WUHU21623XXSP,2013-06-18 05:19:00,
2013-06-17 22:23:00,56.3,52.1,30.01,South,180,0.0,6.3,86,0.00,,,0.00,WUHU21623XXSP,2013-06-18 05:23:00,
2013-06-17 22:24:00,56.3,52.1,30.01,SSW,202,0.0,6.3,86,0.00,,,0.00,WUHU21623XXSP,2013-06-18 05:24:00,
2013-06-17 22:25:00,56.3,52.4,30.01,ESE,112,1.6,6.3,87,0.00,,,0.00,WUHU21623XXSP,2013-06-18 05:25:00,
2013-06-17 22:28:00,56.3,52.4,30.01,SSE,157,0.0,6.3,87,0.00,,,0.00,WUHU21623XXSP,2013-06-18 05:28:00,
2013-06-17 22:29:00,56.3,52.4,30.00,SSW,202,0.0,6.3,87,0.00,,,0.00,WUHU21623XXSP,2013-06-18 05:29:00,
2013-06-17 22:30:00,56.3,52.4,30.01,SW,225,0.0,6.3,87,0.00,,,0.00,WUHU21623XXSP,2013-06-18 05:30:00,
2013-06-17 22:33:00,56.3,52.4,30.00,ESE,112,2.7,4.0,87,0.00,,,0.00,WUHU21623XXSP,2013-06-18 05:33:00,
2013-06-17 22:34:00,56.3,52.4,30.00,SW,225,2.5,4.0,87,0.00,,,0.00,WUHU21623XXSP,2013-06-18 05:34:00,
2013-06-17 22:36:00,56.3,52.4,30.00,SE,135,0.0,4.0,87,0.00,,,0.00,WUHU21623XXSP,2013-06-18 05:36:00,
2013-06-17 22:38:00,56.3,52.4,30.00,WSW,247,0.0,2.7,87,0.00,,,0.00,WUHU21623XXSP,2013-06-18 05:38:00,
2013-06-17 22:39:00,56.3,52.4,30.00,SE,135,0.0,2.7,87,0.00,,,0.00,WUHU21623XXSP,2013-06-18 05:39:00,
2013-06-17 22:40:00,56.3,52.4,30.00,South,180,0.0,2.7,87,0.00,,,0.00,WUHU21623XXSP,2013-06-18 05:40:00,
2013-06-17 22:41:00,56.1,52.4,30.00,ESE,112,5.1,5.1,87,0.00,,,0.00,WUHU21623XXSP,2013-06-18 05:41:00,
2013-06-17 22:43:00,56.1,52.3,30.00,SSE,157,0.0,5.1,87,0.00,,,0.00,WUHU21623XXSP,2013-06-18 05:43:00,
2013-06-17 22:44:00,56.1,52.3,30.00,ESE,112,0.0,5.1,87,0.00,,,0.00,WUHU21623XXSP,2013-06-18 05:44:00,
2013-06-17 22:45:00,56.1,52.3,30.00,SE,135,0.0,5.1,87,0.00,,,0.00,WUHU21623XXSP,2013-06-18 05:45:00,
2013-06-17 22:46:00,56.3,52.4,30.00,SW,225,0.0,5.1,87,0.00,,,0.00,WUHU21623XXSP,2013-06-18 05:46:00,
2013-06-17 22:48:00,56.1,52.3,30.00,SSE,157,0.9,5.1,87,0.00,,,0.00,WUHU21623XXSP,2013-06-18 05:48:00,
2013-06-17 22:50:00,56.1,52.3,30.00,SSE,157,0.0,5.1,87,0.00,,,0.00,WUHU21623XXSP,2013-06-18 05:50:00,
2013-06-17 22:51:00,56.1,52.3,30.00,SE,135,0.0,2.9,87,0.00,,,0.00,WUHU21623XXSP,2013-06-18 05:51:00,
2013-06-17 22:54:00,56.1,52.3,30.00,SE,135,0.0,2.9,87,0.00,,,0.00,WUHU21623XXSP,2013-06-18 05:54:00,
2013-06-17 22:55:00,56.1,52.3,30.00,ESE,112,0.0,2.9,87,0.00,,,0.00,WUHU21623XXSP,2013-06-18 05:55:00,
2013-06-17 22:56:00,56.1,52.3,30.00,SSE,157,0.0,2.9,87,0.00,,,0.00,WUHU21623XXSP,2013-06-18 05:56:00,
2013-06-17 22:57:00,56.1,52.3,30.00,SSE,157,0.0,2.9,87,0.00,,,0.00,WUHU21623XXSP,2013-06-18 05:57:00,
2013-06-17 22:59:00,56.1,52.3,30.00,SE,135,0.0,4.3,87,0.00,,,0.00,WUHU21623XXSP,2013-06-18 05:59:00,
2013-06-17 23:00:00,56.1,52.3,30.00,SE,135,0.0,4.3,87,0.00,,,0.00,WUHU21623XXSP,2013-06-18 06:00:00,
2013-06-17 23:01:00,56.1,52.3,30.00,SE,135,0.0,4.3,87,0.00,,,0.00,WUHU21623XXSP,2013-06-18 06:01:00,
2013-06-17 23:02:00,56.1,52.3,30.00,SSE,157,0.0,4.3,87,0.00,,,0.00,WUHU21623XXSP,2013-06-18 06:02:00,
2013-06-17 23:04:00,55.9,52.1,30.00,SSW,202,0.0,4.3,87,0.00,,,0.00,WUHU21623XXSP,2013-06-18 06:04:00,
2013-06-17 23:05:00,55.9,52.1,30.00,SSW,202,2.5,4.3,87,0.00,,,0.00,WUHU21623XXSP,2013-06-18 06:05:00,
2013-06-17 23:06:00,55.9,52.1,30.00,SSE,157,2.5,4.3,87,0.00,,,0.00,WUHU21623XXSP,2013-06-18 06:06:00,
2013-06-17 23:07:00,55.9,52.1,30.00,South,180,0.0,4.3,87,0.00,,,0.00,WUHU21623XXSP,2013-06-18 06:07:00,
2013-06-17 23:09:00,55.9,52.1,30.00,South,180,0.0,2.7,87,0.00,,,0.00,WUHU21623XXSP,2013-06-18 06:09:00,
2013-06-17 23:10:00,55.9,52.1,30.00,SSE,157,0.0,2.7,87,0.00,,,0.00,WUHU21623XXSP,2013-06-18 06:10:00,
2013-06-17 23:11:00,55.9,52.1,30.00,South,180,0.0,2.7,87,0.00,,,0.00,WUHU21623XXSP,2013-06-18 06:11:00,
2013-06-17 23:12:00,55.9,52.1,30.00,SE,135,0.0,2.7,87,0.00,,,0.00,WUHU21623XXSP,2013-06-18 06:12:00,
2013-06-17 23:14:00,55.9,52.1,30.00,SE,135,0.0,2.7,87,0.00,,,0.00,WUHU21623XXSP,2013-06-18 06:14:00,
2013-06-17 23:15:00,55.9,52.1,30.00,SSE,159,2.1,2.7,87,0.00,,,0.00,WUHU21623XXSP,2013-06-18 06:15:00,
2013-06-17 23:16:00,55.9,52.1,30.00,South,180,0.0,2.7,87,0.00,,,0.00,WUHU21623XXSP,2013-06-18 06:16:00,
2013-06-17 23:17:00,55.9,52.1,30.00,WSW,247,0.0,4.5,87,0.00,,,0.00,WUHU21623XXSP,2013-06-18 06:17:00,
2013-06-17 23:20:00,55.9,52.1,30.00,SSE,157,0.0,4.5,87,0.00,,,0.00,WUHU21623XXSP,2013-06-18 06:20:00,
2013-06-17 23:21:00,55.9,52.1,30.00,SSW,202,1.8,4.5,87,0.00,,,0.00,WUHU21623XXSP,2013-06-18 06:21:00,
2013-06-17 23:23:00,55.9,52.1,30.00,SSW,202,0.0,4.5,87,0.00,,,0.00,WUHU21623XXSP,2013-06-18 06:23:00,
2013-06-17 23:25:00,55.9,52.1,30.00,SSW,202,0.0,4.5,87,0.00,,,0.00,WUHU21623XXSP,2013-06-18 06:25:00,
2013-06-17 23:26:00,55.9,52.1,30.00,SSW,202,0.0,4.5,87,0.00,,,0.00,WUHU21623XXSP,2013-06-18 06:26:00,
2013-06-17 23:28:00,56.1,52.3,30.00,SSE,157,0.0,1.8,87,0.00,,,0.00,WUHU21623XXSP,2013-06-18 06:28:00,
2013-06-17 23:30:00,56.1,52.3,30.00,SSE,157,0.0,1.8,87,0.00,,,0.00,WUHU21623XXSP,2013-06-18 06:30:00,
2013-06-17 23:31:00,56.1,52.3,30.00,SSE,157,0.0,3.4,87,0.00,,,0.00,WUHU21623XXSP,2013-06-18 06:31:00,
2013-06-17 23:33:00,56.1,52.3,30.00,SSW,202,0.0,3.4,87,0.00,,,0.00,WUHU21623XXSP,2013-06-18 06:33:00,
2013-06-17 23:34:00,56.1,52.3,30.00,SSW,202,0.0,3.4,87,0.00,,,0.00,WUHU21623XXSP,2013-06-18 06:34:00,
2013-06-17 23:35:00,56.1,52.3,30.00,SSW,202,0.0,3.4,87,0.00,,,0.00,WUHU21623XXSP,2013-06-18 06:35:00,
2013-06-17 23:36:00,56.1,52.3,30.00,ENE,67,0.0,3.4,87,0.00,,,0.00,WUHU21623XXSP,2013-06-18 06:36:00,
2013-06-17 23:38:00,56.1,52.3,30.00,SSE,157,0.0,3.4,87,0.00,,,0.00,WUHU21623XXSP,2013-06-18 06:38:00,
2013-06-17 23:39:00,56.1,52.3,30.00,SE,135,0.0,3.4,87,0.00,,,0.00,WUHU21623XXSP,2013-06-18 06:39:00,
2013-06-17 23:40:00,56.1,52.3,30.00,SW,225,0.0,3.4,87,0.00,,,0.00,WUHU21623XXSP,2013-06-18 06:40:00,
2013-06-17 23:41:00,56.1,52.3,30.00,South,178,2.3,2.3,87,0.00,,,0.00,WUHU21623XXSP,2013-06-18 06:41:00,
2013-06-17 23:42:00,56.1,52.3,30.00,ESE,112,0.0,2.3,87,0.00,,,0.00,WUHU21623XXSP,2013-06-18 06:42:00,
2013-06-17 23:43:00,56.1,52.3,30.00,ESE,112,0.0,2.3,87,0.00,,,0.00,WUHU21623XXSP,2013-06-18 06:43:00,
2013-06-17 23:44:00,56.1,52.3,30.00,SSE,157,0.0,2.3,87,0.00,,,0.00,WUHU21623XXSP,2013-06-18 06:44:00,
2013-06-17 23:45:00,56.1,52.3,30.00,SE,135,0.0,2.3,87,0.00,,,0.00,WUHU21623XXSP,2013-06-18 06:45:00,
2013-06-17 23:46:00,56.1,52.3,30.00,WSW,247,0.0,2.3,87,0.00,,,0.00,WUHU21623XXSP,2013-06-18 06:46:00,
2013-06-17 23:48:00,56.1,52.3,29.99,SSW,202,0.0,2.3,87,0.00,,,0.00,WUHU21623XXSP,2013-06-18 06:48:00,
2013-06-17 23:49:00,56.1,52.3,29.99,SE,135,0.0,5.8,87,0.00,,,0.00,WUHU21623XXSP,2013-06-18 06:49:00,
2013-06-17 23:50:00,56.1,52.3,30.00,WNW,292,0.0,5.8,87,0.00,,,0.00,WUHU21623XXSP,2013-06-18 06:50:00,
2013-06-17 23:51:00,56.1,52.3,30.00,North,0,0.0,5.8,87,0.00,,,0.00,WUHU21623XXSP,2013-06-18 06:51:00,
2013-06-17 23:53:00,56.1,52.3,30.00,WSW,247,2.0,5.8,87,0.00,,,0.00,WUHU21623XXSP,2013-06-18 06:53:00,
2013-06-17 23:54:00,56.1,52.3,30.00,South,180,0.0,5.8,87,0.00,,,0.00,WUHU21623XXSP,2013-06-18 06:54:00,
2013-06-17 23:55:00,56.1,52.3,30.00,SSW,202,0.0,5.8,87,0.00,,,0.00,WUHU21623XXSP,2013-06-18 06:55:00,
2013-06-17 23:56:00,56.1,52.3,29.99,ESE,112,0.0,5.8,87,0.00,,,0.00,WUHU21623XXSP,2013-06-18 06:56:00,
2013-06-17 23:58:00,56.1,52.3,29.99,East,90,0.0,4.7,87,0.00,,,0.00,WUHU21623XXSP,2013-06-18 06:58:00,
2013-06-17 23:59:00,56.1,52.3,29.99,ESE,112,0.0,4.7,87,0.00,,,0.00,WUHU21623XXSP,2013-06-18 06:59:00,